Product Quantity Retail Price Total Retail Price SKU Model
CARLON NEW WORK 3G 44CU 240 $4.09 $981.60 202517 B344AB
Flush mount light 56 $16.17 $905.52 1005154878 EV1014A-WH
CARLON NEW WORK 2G 32CU PACK 50 5 $120.94 $604.70 817749 B232ACP
"CARLON NW CEILING 4"" 20CU W/BAR&LUG" 57 $7.02 $400.14 352366 B620KGR-UPC
1300-WATT EQUIVALENT INTEGRATED LED 1 $297.56 $297.56 1007104296 104-11300001-1
1300-WATT EQUIVALENT INTEGRATED LED 1 $297.56 $297.56 1007104296 104-11300001-1
GOSSAMER 60 IN. LED 3 BLADES BRUSHED 1 $231.21 $231.21 1005741785 953L60BNSLV
GOSSAMER 60 IN. LED 3 BLADES BRUSHED 1 $231.21 $231.21 1005741785 953L60BNSLV
GOSSAMER 60 IN. LED 3 BLADES BRUSHED 1 $231.21 $231.21 1005741785 953L60BNSLV
"CARLON OLD WORK CEILING 4"" 18CU" 57 $3.72 $212.04 339172 B618RR
LARITZA 56 IN. INTEGRATED LED 4 DARK 1 $195.98 $195.98 1005741904 108L56MBKDBR
LARITZA 56 IN. INTEGRATED LED 4 DARK 1 $195.98 $195.98 1005741904 108L56MBKDBR
16/3 50' HUSKY EXTENSION CORD 10 $17.94 $179.40 793812 HUSKY16350
16/3 50' HUSKY EXTENSION CORD 10 $17.94 $179.40 793812 HUSKY16350
4FT X 1.5FT TRADITIONAL LED PUFF 1 $162.72 $162.72 1000532369 54645141
4FT X 1.5FT TRADITIONAL LED PUFF 1 $162.72 $162.72 1000532369 54645141
16/3 50' HUSKY EXTENSION CORD 9 $17.94 $161.46 793812 HUSKY16350
CARLON NEW WORK 2G 34CU ADJUSTABLE 16 $9.73 $155.68 373069 B234ADJC
CARLON NEW WORK 2G 34CU ADJUSTABLE 16 $9.73 $155.68 373069 B234ADJC
CARLON NEW WORK 2G 34CU ADJUSTABLE 16 $9.73 $155.68 373069 B234ADJC
CARLON NEW WORK 2G 34CU ADJUSTABLE 16 $9.73 $155.68 373069 B234ADJC
CARLON NEW WORK 2G 34CU ADJUSTABLE 16 $9.73 $155.68 373069 B234ADJC
1.5FT X 4FT RECTANGLE CCT PUFF 1 $152.54 $152.54 1009183126 567131111
1.5FT X 4FT RECTANGLE CCT PUFF 1 $152.54 $152.54 1009183126 567131111
1.5FT X 4FT RECTANGLE CCT PUFF 1 $148.22 $148.22 1009183126 567131111
1.5FT X 4FT RECTANGLE CCT PUFF 1 $148.22 $148.22 1009183126 567131111
CARLON NEW WORK 2G 34CU ADJUSTABLE 15 $9.73 $145.95 373069 B234ADJC
700- WATT EQUIVALENT INTEGRATED LED 1 $135.23 $135.23 1007092281 104-10300001-1
CARLON NEW WORK 2G 32CU PACK 50 1 $120.94 $120.94 817749 B232ACP
16/3 25' HUSKY EXTENSION CORD 12 $9.98 $119.76 791980 AW62667
CARLON NEW WORK 3G 49CU ADJUSTABLE 10 $11.72 $117.20 243741 B349ADJ
CARLON LOW VOLTAGE NEW WORK 2G 25 $4.66 $116.50 207534 SC200AR
16/3 25' HUSKY EXTENSION CORD 11 $9.98 $109.78 791980 AW62667
"1/2 in. 200 ft. Electrical Nonmetallic Tubing Conduit Coil, Blue" 1 $109.61 $109.61 537144 12005-200
1/2 in. 200 ft. Elec 1 $109.61 $109.61 537144 12005-200
4FT X 1FT TRADITION LED PUFF 1 $106.63 $106.63 1000532454 54644141
4FT X 1FT TRADITION LED PUFF 1 $106.63 $106.63 1000532454 54644141
4FT X 1FT TRADITION LED PUFF 1 $106.63 $106.63 1000532454 54644141
4FT X 1FT TRADITION LED PUFF 1 $106.63 $106.63 1000532454 54644141
4FT X 1FT TRADITION LED PUFF 1 $106.63 $106.63 1000532454 54644141
4FT X 1FT TRADITION LED PUFF 1 $106.63 $106.63 1000532454 54644141
CARLON NEW WORK 3G 44CU 26 $4.09 $106.34 202517 B344AB
CE 70-WATT BRONZE LED FLOOD LIGHT 1 $103.24 $103.24 1008341371 104-10700001-1
CE 70-WATT BRONZE LED FLOOD LIGHT 1 $103.24 $103.24 1008341371 104-10700001-1
CE 70-WATT BRONZE LED FLOOD LIGHT 1 $103.24 $103.24 1008341371 104-10700001-1
CE 70-WATT BRONZE LED FLOOD LIGHT 1 $103.24 $103.24 1008341371 104-10700001-1
CE 70-WATT BRONZE LED FLOOD LIGHT 1 $103.24 $103.24 1008341371 104-10700001-1
"CE 8,500 LUMEN BRONZE LED AREA LIGHT" 1 $100.72 $100.72 1008341382 104-11100001-1
"CE 8,500 LUMEN BRONZE LED AREA LIGHT" 1 $100.72 $100.72 1008341382 104-11100001-1
1FT X 4FT TRADITIONAL RECTANGLE CCT 1 $98.60 $98.60 1009184238 567121111
1FT X 4FT TRADITIONAL RECTANGLE CCT 1 $98.47 $98.47 1009184238 567121111
450- WATT EQUIVALENT INTEGRATED LED 1 $92.57 $92.57 1007104294 104-10200001-1
New UBIP 60 Amp 1-1/ 1 $90.69 $90.69 1000499956 UBIP260
60 AMP 1-1/4 IN. DOUBLE-POLE TYPE P 1 $90.69 $90.69 1000499956 UBIP260
60 AMP 1-1/4 IN. DOUBLE-POLE TYPE P 1 $90.69 $90.69 1000499956 UBIP260
ROCKHILL CCT 3LT BRONZE VANITY LT 1 $87.53 $87.53 1006358033 51779
FLOOD LIGHT 50W 4K 5000 LUM 1 $82.43 $82.43 1005954832 104-09500001-1
FLOOD LIGHT 50W 4K 5000 LUM 1 $82.43 $82.43 1005954832 104-09500001-1
New VPKUBIZ Thin 60 Amp 3/4 in. 2-Pole Zinsco RC3860 Replacement Circuit Breaker 1 $80.43 $80.43 234772 UBIZ-0260
COLLIER HEIGHTS 3CCT LED W NGHT LT 1 $77.65 $77.65 1006316329 537999010
COLLIER HEIGHTS 3CCT LED W NGHT LT 1 $77.42 $77.42 1006316329 537999010
NORTHAVALE 3 LT MB VANITY & BATH SET 1 $73.69 $73.69 1008107805 51570-HB
NORTHAVALE 3 LT MB VANITY & BATH SET 1 $73.31 $73.31 1008107805 51570-HB
CE TWIN 30W MOT FLOOD WHITE 1 $73.29 $73.29 1006757023 104-09900004-1
NORTHAVALE 3 LT MB VANITY & BATH SET 1 $72.03 $72.03 1008107805 51570-HB
120-VOLT 7-DAY INDOOR IN-WALL SINGLE 1 $71.81 $71.81 1005789996 RPLS530A2PK
120-VOLT 7-DAY INDOOR IN-WALL SINGLE 1 $71.81 $71.81 1005789996 RPLS530A2PK
CE 42IN BLUETOOTH SHPLGHT W/SPKRS 1 $71.65 $71.65 1005749486 55703191
4 FT. BETTER WRAP - 5200 LUMENS 1 $71.45 $71.45 1001820735 54677141
4 FT. BETTER WRAP - 5200 LUMENS 1 $71.39 $71.39 1001820735 54677141
50' 12/3 HUSKY WORK LIGHT STRING 1 $71.13 $71.13 875951 LS-002B
50' 12/3 HUSKY WORK LIGHT STRING 1 $71.13 $71.13 875951 LS-002B
50' 12/3 HUSKY WORK LIGHT STRING 1 $71.13 $71.13 875951 LS-002B
50' 12/3 HUSKY WORK LIGHT STRING 1 $71.13 $71.13 875951 LS-002B
50' 12/3 HUSKY WORK LIGHT STRING 1 $71.13 $71.13 875951 LS-002B
50' 12/3 HUSKY WORK LIGHT STRING 1 $71.13 $71.13 875951 LS-002B
50' 12/3 HUSKY WORK LIGHT STRING 1 $71.13 $71.13 875951 LS-002B
CE 42IN BLUETOOTH SHPLGHT W/SPKRS 1 $69.94 $69.94 1005749486 55703191
1-LIGHT BLACK MOTION ACTIVATED OUTDO 1 $68.16 $68.16 1002822853 HZ-4152-BK
1-LIGHT BLACK MOTION ACTIVATED OUTDO 1 $68.16 $68.16 1002822853 HZ-4152-BK
"CLOSURE PLUGS 1"" SILVER" 32 $2.09 $66.88 1007812587 S605E-30R
2FT X 1FT RECTANGULAR LED PUFF 1 $66.77 $66.77 1000532244 54648141
2FT X 1FT RECTANGULAR LED PUFF 1 $66.77 $66.77 1000532244 54648141
2FT X 1FT RECTANGULAR LED PUFF 1 $66.77 $66.77 1000532244 54648141
2FT X 1FT RECTANGULAR LED PUFF 1 $66.77 $66.77 1000532244 54648141
2FT X 1FT RECTANGULAR LED PUFF 1 $66.77 $66.77 1000532244 54648141
2FT X 1FT RECTANGULAR LED PUFF 1 $66.77 $66.77 1000532244 54648141
2FT X 1FT RECTANGULAR LED PUFF 1 $66.77 $66.77 1000532244 54648141
48 FT. 24-LIGHT LED STRING LIGHT 1 $66.41 $66.41 1004683595 10328
48 FT. 24-LIGHT LED STRING LIGHT 1 $66.41 $66.41 1004683595 10328
48 FT. 24-LIGHT LED STRING LIGHT 1 $66.41 $66.41 1004683595 10328
48 FT. 24-LIGHT LED STRING LIGHT 1 $66.41 $66.41 1004683595 10328
48 FT. 24-LIGHT LED STRING LIGHT 1 $66.41 $66.41 1004683595 10328
48 FT. 24-LIGHT LED STRING LIGHT 1 $66.41 $66.41 1004683595 10328
48 FT. 24-LIGHT LED STRING LIGHT 1 $66.41 $66.41 1004683595 10328
48 FT. 24-LIGHT LED STRING LIGHT 1 $66.41 $66.41 1004683595 10328
SECUR360 WIRED VIDEO DOORBELL 1 $66.14 $66.14 1004948255 SL-9600-00
LAMPHOLDER SILVER 20 $3.12 $62.40 214361 5606-0B
MISSION EXTERIOR WALL W/GFCI-DNI 1 $61.94 $61.94 470410 30264
1FT X 2FT RECTANGLE CCT PUFF 1 $60.77 $60.77 1009184220 567111111
"SINGLE GANG FLOOR BOX KIT, BLACK" 1 $60.03 $60.03 1003220267 6239BK
"SINGLE GANG FLOOR BOX KIT, BLACK" 1 $60.03 $60.03 1003220267 6239BK
"SINGLE GANG FLOOR BOX KIT, BLACK" 1 $60.03 $60.03 1003220267 6239BK
"SINGLE GANG FLOOR BOX KIT, BLACK" 1 $60.03 $60.03 1003220267 6239BK
360- MOTION ACTIVATED OCTAGONAL CEIL 1 $59.23 $59.23 1001539716 HZ-4300-BK
VERTICAL WALL PACK 28W 3000 LUM 1 $58.71 $58.71 1005954836 104-10500001-1
020 JUNCTION BOX 12X12X6 1 $57.94 $57.94 693878 R5133713
HUXLEY 3LT FLUSH MOUNT DB 1 $57.54 $57.54 1007946620 32986
HUXLEY 3LT FLUSH MOUNT DB 1 $57.54 $57.54 1007946620 32986
HUXLEY 3LT FLUSH MOUNT DB 1 $57.54 $57.54 1007946620 32986
HUXLEY 3LT FLUSH MOUNT DB 1 $57.54 $57.54 1007946620 32986
HUXLEY 3LT FLUSH MOUNT DB 1 $57.54 $57.54 1007946620 32986
DUPLEX FLOOR BOX W/BRASS COVER 1 $55.73 $55.73 623860 6500BR
DUPLEX FLOOR BOX W/BRASS COVER 1 $55.73 $55.73 623860 6500BR
DUPLEX FLOOR BOX W/BRASS COVER 1 $55.73 $55.73 623860 6500BR
DUPLEX FLOOR BOX W/BRASS COVER 1 $55.73 $55.73 623860 6500BR
DUPLEX FLOOR BOX W/BRASS COVER 1 $55.73 $55.73 623860 6500BR
DUPLEX FLOOR BOX W/BRASS COVER 1 $55.73 $55.73 623860 6500BR
DUPLEX FLOOR BOX W/BRASS COVER 1 $55.73 $55.73 623860 6500BR
EASTCASTLE 4LT FIXED TRACK LT MB 1 $55.56 $55.56 1007730350 33014
"16 DIAMOND PUFF, WHT" 1 $55.07 $55.07 1002640535 54451611
"16 DIAMOND PUFF, WHT" 1 $55.07 $55.07 1002640535 54451611
20 ROUND CCT PUFF 1 $51.29 $51.29 1009184242 564511111
20 ROUND CCT PUFF 1 $50.69 $50.69 1009184242 564511111
20 ROUND CCT PUFF 1 $50.69 $50.69 1009184242 564511111
20 ROUND CCT PUFF 1 $50.65 $50.65 1009184242 564511111
20 ROUND CCT PUFF 1 $50.65 $50.65 1009184242 564511111
20 ROUND CCT PUFF 1 $50.65 $50.65 1009184242 564511111
20 ROUND CCT PUFF 1 $50.65 $50.65 1009184242 564511111
20 ROUND CCT PUFF 1 $50.65 $50.65 1009184242 564511111
20 ROUND CCT PUFF 1 $50.65 $50.65 1009184242 564511111
20 ROUND CCT PUFF 1 $50.65 $50.65 1009184242 564511111
HB WIRED/WIRELESS CHIME BRUSH NICKEL 1 $50.44 $50.44 1001407776 HB-7612-02
HUBSPACE WIRELESS WI-FI CONNECTED PL 1 $49.23 $49.23 1007155882 DF-3015-00
48 FT. 24-LIGHT LED STRING LIGHT 1 $48.79 $48.79 1004683595 10328
48 FT. 24-LIGHT LED STRING LIGHT 1 $48.79 $48.79 1004683595 10328
HURLEY 1LT LG EXT WALL LIGHT BLACK 1 $48.44 $48.44 1007417817 44772
"CARLON OLD WORK CEILING 4"" 18CU" 13 $3.72 $48.36 339172 B618RR
HURLEY 1LT LG EXT WALL LIGHT BLACK 1 $48.28 $48.28 1007417817 44772
UNIVERSAL LED CEILING FAN LIGHT KIT 1 $47.97 $47.97 1001516521 53701101
HURLEY 1LT LG EXT WALL LIGHT BLACK 1 $47.84 $47.84 1007417817 44772
HURLEY 1LT LG EXT WALL LIGHT BLACK 1 $47.84 $47.84 1007417817 44772
12IN ROUND LED PUFF 2 $23.57 $47.14 1000236597 54074341
CARLON NEW WORK 2G 32CU BRACKET 12 $3.91 $46.92 690414 B232BR
13IN W LOW PROF W/NTLGHT & ORB TRIM 1 $45.84 $45.84 1005683079 56584112
13IN W LOW PROF W/NTLGHT & ORB TRIM 1 $45.84 $45.84 1005683079 56584112
13IN W LOW PROF W/NTLGHT & ORB TRIM 1 $45.84 $45.84 1005683079 56584112
13IN W LOW PROF W/NTLGHT & ORB TRIM 1 $45.76 $45.76 1005683079 56584112
13IN W LOW PROF W/NTLGHT & ORB TRIM 1 $45.26 $45.26 1005683079 56584112
CARLON OLD WORK 3G 55CU 6 $7.54 $45.24 495730 B355R
CARLON OLD WORK 3G 55CU 6 $7.54 $45.24 495730 B355R
13IN W LOW PROF W/NTLGHT & ORB TRIM 1 $44.83 $44.83 1005683079 56584112
HIGH-PERFORMANCE 29-WATT 3300 LUMENS 1 $44.30 $44.30 1005479364 104-08900001-1
HIGH-PERFORMANCE 29-WATT 3300 LUMENS 1 $44.30 $44.30 1005479364 104-08900001-1
HIGH-PERFORMANCE 29-WATT 3300 LUMENS 1 $44.30 $44.30 1005479364 104-08900001-1
HIGH-PERFORMANCE 29-WATT 3300 LUMENS 1 $44.30 $44.30 1005479364 104-08900001-1
HIGH-PERFORMANCE 29-WATT 3300 LUMENS 1 $44.30 $44.30 1005479364 104-08900001-1
HIGH-PERFORMANCE 29-WATT 3300 LUMENS 1 $44.30 $44.30 1005479364 104-08900001-1
RUSTIC PINE 1LT WALL SCONCE 1 $44.25 $44.25 894149 17190
GREENHAVEN 5CCT LED EXT FLUSH BLK 1 $43.72 $43.72 1007155791 564281011
"CARLON ENT COIL 1"" X 25'" 1 $43.46 $43.46 462035 12008-025
"CARLON ENT COIL 1"" X 25'" 1 $43.46 $43.46 462035 12008-025
"CARLON ENT COIL 1"" X 25'" 1 $43.46 $43.46 462035 12008-025
COMMERCIAL ELECTRIC 4FT LINKABLE LED 1 $43.29 $43.29 1000532467 54103161
COMMERCIAL ELECTRIC 4FT LINKABLE LED 1 $43.29 $43.29 1000532467 54103161
COMMERCIAL ELECTRIC 4FT LINKABLE LED 1 $43.29 $43.29 1000532467 54103161
COMMERCIAL ELECTRIC 4FT LINKABLE LED 1 $43.29 $43.29 1000532467 54103161
COMMERCIAL ELECTRIC 4FT LINKABLE LED 1 $43.29 $43.29 1000532467 54103161
COMMERCIAL ELECTRIC 4FT LINKABLE LED 1 $43.29 $43.29 1000532467 54103161
GREENHAVEN 5CCT LED EXT FLUSH BLK 1 $42.46 $42.46 1007155791 564281011
4FT CE LED WHITE WRAP LIGHT 1 $42.38 $42.38 1001361676 54654141
4FT CE LED WHITE WRAP LIGHT 1 $42.35 $42.35 1001361676 54654141
4FT CE LED WHITE WRAP LIGHT 1 $42.35 $42.35 1001361676 54654141
ALABASTER BRZ SOLAR LED 6PK PATH 1 $42.09 $42.09 1003459237 0817039-BA
ALABASTER BRZ SOLAR LED 6PK PATH 1 $42.09 $42.09 1003459237 0817039-BA
ALABASTER BRZ SOLAR LED 6PK PATH 1 $42.09 $42.09 1003459237 0817039-BA
4FT CE LED WHITE WRAP LIGHT 1 $42.08 $42.08 1001361676 54654141
4FT CE LED WHITE WRAP LIGHT 1 $42.08 $42.08 1001361676 54654141
4FT CE LED WHITE WRAP LIGHT 1 $42.08 $42.08 1001361676 54654141
COMMERCIAL ELECTRIC 4FT LINKABLE LED 1 $41.91 $41.91 1000532467 54103161
4FT STRIP LIGHT 1 $41.69 $41.69 1001391103 1001391103
4FT STRIP LIGHT 1 $41.69 $41.69 1001391103 1001391103
COMMERCIAL ELECTRIC 4FT LINKABLE LED 1 $41.57 $41.57 1000532467 54103161
4FT STRIP LIGHT 1 $41.40 $41.40 1001391103 1001391103
4FT STRIP LIGHT 1 $41.40 $41.40 1001391103 1001391103
4FT STRIP LIGHT 1 $41.40 $41.40 1001391103 1001391103
4FT STRIP LIGHT 1 $41.40 $41.40 1001391103 1001391103
4FT STRIP LIGHT 1 $41.40 $41.40 1001391103 1001391103
4FT STRIP LIGHT 1 $41.40 $41.40 1001391103 1001391103
4FT STRIP LIGHT 1 $41.40 $41.40 1001391103 1001391103
4FT STRIP LIGHT 1 $41.40 $41.40 1001391103 1001391103
4FT CE LED WHITE WRAP LIGHT 1 $41.29 $41.29 1001361676 54654141
4FT STRIP LIGHT 1 $41.24 $41.24 1001391103 1001391103
TURNER 1LT EXT WALL LT BLACK 1 $41.04 $41.04 1003239555 44308
TURNER 1LT EXT WALL LT BLACK 1 $41.04 $41.04 1003239555 44308
TURNER 1LT EXT WALL LT BLACK 1 $41.04 $41.04 1003239555 44308
TURNER 1LT EXT WALL LT BLACK 1 $41.04 $41.04 1003239555 44308
GREENHAVEN 5CCT LED EXT FLUSH BLK 1 $41.02 $41.02 1007155791 564281011
GREENHAVEN 5CCT LED EXT FLUSH BLK 1 $41.02 $41.02 1007155791 564281011
4FT CE LED WHITE WRAP LIGHT 1 $40.90 $40.90 1001361676 54654141
4FT CE LED WHITE WRAP LIGHT 1 $40.90 $40.90 1001361676 54654141
4FT STRIP LIGHT 1 $40.83 $40.83 1001391103 1001391103
4FT CE LED WHITE WRAP LIGHT 1 $40.55 $40.55 1001361676 54654141
VERTICAL WALL PACK 15W 1500 LUM 1 $39.56 $39.56 1005954834 104-10400001-1
VERTICAL WALL PACK 15W 1500 LUM 1 $39.56 $39.56 1005954834 104-10400001-1
MET IN-USE CVR 1GANG KIT W/GFCI 1 $39.42 $39.42 602679 CSMGV-NR
CARLON NEW WORK 2G 32CU 16 $2.43 $38.88 202509 B232ACP
24 FT. 12-LIGHT LED STRING LIGHT 1 $37.80 $37.80 1004683594 10366
24 FT. 12-LIGHT LED STRING LIGHT 1 $37.80 $37.80 1004683594 10366
24 FT. 12-LIGHT LED STRING LIGHT 1 $37.80 $37.80 1004683594 10366
24 FT. 12-LIGHT LED STRING LIGHT 1 $37.80 $37.80 1004683594 10366
CARLON OLD WORK 3G 55CU 5 $7.54 $37.70 495730 B355R
HB WRLS TABLE TOP STROBE CHIME KIT 1 $37.21 $37.21 1001411364 HB-7778-02
HB WRLS TABLE TOP STROBE CHIME KIT 1 $37.21 $37.21 1001411364 HB-7778-02
HB WRLS TABLE TOP STROBE CHIME KIT 1 $37.21 $37.21 1001411364 HB-7778-02
HB WRLS TABLE TOP STROBE CHIME KIT 1 $37.21 $37.21 1001411364 HB-7778-02
HB WRLS TABLE TOP STROBE CHIME KIT 1 $37.21 $37.21 1001411364 HB-7778-02
16IN ROUND LED PUFF 1 $37.06 $37.06 1000236729 54075341
16IN ROUND LED PUFF 1 $37.06 $37.06 1000236729 54075341
16IN ROUND LED PUFF 1 $37.06 $37.06 1000236729 54075341
16IN ROUND LED PUFF 1 $37.06 $37.06 1000236729 54075341
HURLEY 1LT EXT PENDANT LT BLACK 1 $36.85 $36.85 1007259766 44835
16IN ROUND LED PUFF 1 $36.63 $36.63 1000236729 54075341
2FT WRAP LIGHT 1 $36.57 $36.57 1001397562 54655141
2FT WRAP LIGHT 1 $36.57 $36.57 1001397562 54655141
2FT WRAP LIGHT 1 $36.57 $36.57 1001397562 54655141
HURLEY 1LT EXT PENDANT LT BLACK 1 $36.54 $36.54 1007259766 44835
11 IN PRO WHITE EASY LIGHT LED FM 1 $36.30 $36.30 1001258405 54652143
11 IN PRO WHITE EASY LIGHT LED FM 1 $36.09 $36.09 1001258405 54652143
ECONO SWITCH 7 DAY PROGRAMMABLE SOLA 1 $35.91 $35.91 1000524493 RPLS530A1038/U
11 IN PRO WHITE EASY LIGHT LED FM 1 $35.76 $35.76 1001258405 54652143
TWIN-HEAD DIRECTIONAL WHITE OUTDOOR 1 $35.32 $35.32 1006559581 104-08600006-1
BAYSIDE 1LT 150D MOTION WALL LT BLK 1 $35.24 $35.24 418916 SL-4132-BK
CE 40IN MOTION SHOPLIGHT 1 $34.20 $34.20 1005535874 55701191
CE 40IN MOTION SHOPLIGHT 1 $34.20 $34.20 1005535874 55701191
CE 40IN MOTION SHOPLIGHT 1 $34.20 $34.20 1005535874 55701191
CE 40IN MOTION SHOPLIGHT 1 $34.20 $34.20 1005535874 55701191
CE 40IN MOTION SHOPLIGHT 1 $34.20 $34.20 1005535874 55701191
CE 40IN MOTION SHOPLIGHT 1 $34.20 $34.20 1005535874 55701191
CE 40IN MOTION SHOPLIGHT 1 $34.20 $34.20 1005535874 55701191
16 ROUND CCT PUFF 1 $33.37 $33.37 1009184216 564501111
16 ROUND CCT PUFF 1 $33.37 $33.37 1009184216 564501111
16 ROUND CCT PUFF 1 $33.37 $33.37 1009184216 564501111
16 ROUND CCT PUFF 1 $33.37 $33.37 1009184216 564501111
4FT STRIP LIGHT LINKABLE 1 $33.28 $33.28 1001391348 1001391348
4FT STRIP LIGHT LINKABLE 1 $33.26 $33.26 1001391348 1001391348
4FT STRIP LIGHT LINKABLE 1 $33.26 $33.26 1001391348 1001391348
4FT STRIP LIGHT LINKABLE 1 $33.26 $33.26 1001391348 1001391348
4FT STRIP LIGHT LINKABLE 1 $33.24 $33.24 1001391348 1001391348
BRACKET CORNER ANGLE 4-HOLE SILVER 9 $3.69 $33.21 537896 ZAB205EG
CE 40IN MOTION SHOPLIGHT 1 $33.17 $33.17 1005535874 55701191
CE 40IN MOTION SHOPLIGHT 1 $33.17 $33.17 1005535874 55701191
CE 40IN MOTION SHOPLIGHT 1 $33.12 $33.12 1005535874 55701191
CE 40IN MOTION SHOPLIGHT 1 $33.12 $33.12 1005535874 55701191
4FT STRIP LIGHT LINKABLE 1 $33.07 $33.07 1001391348 1001391348
4FT STRIP LIGHT LINKABLE 1 $33.07 $33.07 1001391348 1001391348
Shaker Cove Mission 1 $32.96 $32.96 439720 SL-4135-BK
Shaker Cove Mission 1 $32.96 $32.96 439720 SL-4135-BK
Shaker Cove Mission 1 $32.96 $32.96 439720 SL-4135-BK
Shaker Cove Mission 1 $32.96 $32.96 439720 SL-4135-BK
Shaker Cove Mission 1 $32.96 $32.96 439720 SL-4135-BK
"LIQTITE CONN STEEL STRAIGHT 1""" 7 $4.66 $32.62 263694 3404-8
CARLON NEW WORK 2G 32CU 13 $2.43 $31.59 202509 B232ACP
WIRELESS BATTERY KIT WHITE W/NICKEL 1 $31.18 $31.18 1008504844 18000025
WIRELESS BATTERY KIT WHITE & NICKEL 1 $31.18 $31.18 1006013621 HB-7314-00
2FT WRAP LIGHT 1 $31.07 $31.07 1001397562 54655141
RIDGEWAY 1LT SHADE WALL SCONCE M-BLK 1 $30.65 $30.65 1007288154 65755
UV INS 2 PORT/1 CONN 10 AWG-250 KCMI 1 $30.31 $30.31 1000386557 1PL2502R
3LT WHT FAN LT KIT 1 $30.06 $30.06 1005027902 91293
HB 24 FT. 12-LIGHT INCANDESCENT STRI 1 $29.86 $29.86 1006695149 2416J2-1
HB 24 FT. 12-LIGHT INCANDESCENT STRI 1 $29.86 $29.86 1006695149 2416J2-1
HB 24 FT. 12-LIGHT INCANDESCENT STRI 1 $29.86 $29.86 1006695149 2416J2-1
HB 24 FT. 12-LIGHT INCANDESCENT STRI 1 $29.75 $29.75 1006695149 2416J2-1
"HB 24 FT. 12-LIGHT STRING LIGHT, WHI" 1 $29.75 $29.75 1006695151 2418J2-1W
TALLULAH 1LT MATTE BLK WGOLD PENDANT 1 $29.72 $29.72 1005848160 60953
TALLULAH 1LT MATTE BLK WGOLD PENDANT 1 $29.72 $29.72 1005848160 60953
TALLULAH 1LT MATTE BLK WGOLD PENDANT 1 $29.72 $29.72 1005848160 60953
TALLULAH 1LT MATTE BLK WGOLD PENDANT 1 $29.72 $29.72 1005848160 60953
TALLULAH 1LT MATTE BLK WGOLD PENDANT 1 $29.72 $29.72 1005848160 60953
TALLULAH 1LT MATTE BLK WGOLD PENDANT 1 $29.72 $29.72 1005848160 60953
TALLULAH 1LT MATTE BLK WGOLD PENDANT 1 $29.72 $29.72 1005848160 60953
TALLULAH 1LT MATTE BLK WGOLD PENDANT 1 $29.72 $29.72 1005848160 60953
TALLULAH 1LT MATTE BLK WGOLD PENDANT 1 $29.72 $29.72 1005848160 60953
HB 24 FT. 12-LIGHT INCANDESCENT STRI 1 $29.21 $29.21 1006695149 2416J2-1
HB 24 FT. 12-LIGHT INCANDESCENT STRI 1 $29.21 $29.21 1006695149 2416J2-1
2FT STRIP LIGHT 1 $28.76 $28.76 1001390037 1001390037
"WIRELESS BATTERY KIT, WHITE & GREY" 1 $28.35 $28.35 1006013622 HB-7317-00
WIRELESS BATTERY KIT NICKEL & GREY 1 $28.35 $28.35 1006013620 HB-7401-00
RIDGEWAY 1LT SHADE WALL SCONCE M-BLK 1 $28.19 $28.19 1007288154 65755
RIDGEWAY 1LT SHADE WALL SCONCE M-BLK 1 $28.19 $28.19 1007288154 65755
5/6 IN LED CCT SMART RECESSED TRIM 1 $27.95 $27.95 1005733091 538561010
5/6 IN LED CCT SMART RECESSED TRIM 1 $27.95 $27.95 1005733091 538561010
5/6 IN LED CCT SMART RECESSED TRIM 1 $27.95 $27.95 1005733091 538561010
5/6 IN LED CCT SMART RECESSED TRIM 1 $27.94 $27.94 1005733091 538561010
5/6 IN LED CCT SMART RECESSED TRIM 1 $27.94 $27.94 1005733091 538561010
5/6 IN LED CCT SMART RECESSED TRIM 1 $27.94 $27.94 1005733091 538561010
5/6 IN LED CCT SMART RECESSED TRIM 1 $27.94 $27.94 1005733091 538561010
5/6 IN LED CCT SMART RECESSED TRIM 1 $27.92 $27.92 1005733091 538561010
"36"" PLUG IN UC LED LIGHT WHT CCT" 1 $27.78 $27.78 1005908979 53507102
"36"" PLUG IN UC LED LIGHT WHT CCT" 1 $27.78 $27.78 1005908979 53507102
4IN CANLESS 5CCT NIGHT LIGHT 1 $27.76 $27.76 1005596102 53827101
4IN CANLESS 5CCT NIGHT LIGHT 1 $27.76 $27.76 1005596102 53827101
BAYSIDE 1LT 150D MOTION WALL LT BLK 1 $27.75 $27.75 418916 SL-4132-BK
BAYSIDE 1LT 150D MOTION WALL LT BLK 1 $27.75 $27.75 418916 SL-4132-BK
BAYSIDE 1LT 150D MOTION WALL LT BLK 1 $27.75 $27.75 418916 SL-4132-BK
5/6 IN LED CCT SMART RECESSED TRIM 1 $27.67 $27.67 1005733091 538561010
"36"" PLUG IN UC LED LIGHT WHT CCT" 1 $27.56 $27.56 1005908979 53507102
LED SPIN LIGHT 3500 LUMEN 1 $27.51 $27.51 1007665038 566011410
LED SPIN LIGHT 3500 LUMEN 1 $27.40 $27.40 1007665038 566011410
LED SPIN LIGHT 3500 LUMEN 1 $27.40 $27.40 1007665038 566011410
5/6IN LED RECESSED TRIM 4CLR BAFFLE 1 $27.29 $27.29 1003455821 53198101
5/6IN LED RECESSED TRIM 4CLR BAFFLE 1 $27.29 $27.29 1003455821 53198101
5/6IN LED RECESSED TRIM 4CLR BAFFLE 1 $27.29 $27.29 1003455821 53198101
5/6IN LED RECESSED TRIM 4CLR BAFFLE 1 $27.29 $27.29 1003455821 53198101
5/6IN LED RECESSED TRIM 4CLR BAFFLE 1 $27.29 $27.29 1003455821 53198101
BRYSON 1LT CAGE SCONCE MATTE BLK 1 $27.09 $27.09 1007288215 65740
4 IN LED CCT SMART RECESSED TRIM 1 $27.09 $27.09 1005731229 538551010
5/6 IN LED CCT SMART RECESSED TRIM 1 $27.04 $27.04 1005733091 538561010
90 DEG. LIQ. TITE CONNECTOR 3 $9.01 $27.03 263730 3424-8
LED SPIN LIGHT 3500 LUMEN 1 $27.02 $27.02 1007665038 566011410
RIDGEWAY 1LT SHADE WALL SCONCE M-BLK 1 $26.93 $26.93 1007288154 65755
CARLON NEW WORK 2G 32CU 11 $2.43 $26.73 202509 B232ACP
"E305 EMT COMP COUPLING 3/4"" ZNC PK5" 4 $6.60 $26.40 895327 22222
4 IN LED CCT SMART RECESSED TRIM 1 $26.20 $26.20 1005731229 538551010
PVC 1-Gang 20 cu. in 30 $0.87 $26.10 305324 B120A-UPC
6IN LED RECESSED TRIM W/ NIGHT LIGHT 1 $25.72 $25.72 1003456565 53804101
6IN LED RECESSED TRIM W/ NIGHT LIGHT 1 $25.72 $25.72 1003456565 53804101
6IN LED RECESSED TRIM W/ NIGHT LIGHT 1 $25.72 $25.72 1003456565 53804101
6IN LED RECESSED TRIM W/ NIGHT LIGHT 1 $25.72 $25.72 1003456565 53804101
6IN LED RECESSED TRIM W/ NIGHT LIGHT 1 $25.72 $25.72 1003456565 53804101
2 FT. 2000 LUMENS INTEGRATED LED WHI 1 $25.72 $25.72 1006845250 568051410
6IN LED RECESSED TRIM W/ NIGHT LIGHT 1 $25.72 $25.72 1003456565 53804101
6IN LED RECESSED TRIM W/ NIGHT LIGHT 1 $25.50 $25.50 1003456565 53804101
6IN LED RECESSED TRIM W/ NIGHT LIGHT 1 $25.50 $25.50 1003456565 53804101
6IN LED RECESSED TRIM W/ NIGHT LIGHT 1 $25.50 $25.50 1003456565 53804101
6IN LED RECESSED TRIM W/ NIGHT LIGHT 1 $25.50 $25.50 1003456565 53804101
6IN LED RECESSED TRIM W/ NIGHT LIGHT 1 $25.50 $25.50 1003456565 53804101
6IN LED RECESSED TRIM W/ NIGHT LIGHT 1 $25.50 $25.50 1003456565 53804101
6IN LED RECESSED TRIM W/ NIGHT LIGHT 1 $25.50 $25.50 1003456565 53804101
6IN LED RECESSED TRIM W/ NIGHT LIGHT 1 $25.50 $25.50 1003456565 53804101
6IN LED RECESSED TRIM W/ NIGHT LIGHT 1 $25.50 $25.50 1003456565 53804101
6IN LED RECESSED TRIM W/ NIGHT LIGHT 1 $25.50 $25.50 1003456565 53804101
6IN LED RECESSED TRIM W/ NIGHT LIGHT 1 $25.50 $25.50 1003456565 53804101
6IN LED RECESSED TRIM W/ NIGHT LIGHT 1 $25.50 $25.50 1003456565 53804101
6IN LED RECESSED TRIM W/ NIGHT LIGHT 1 $25.50 $25.50 1003456565 53804101
CARLON LOW VOLTAGE NEW WORK 1G 9 $2.82 $25.38 196279 SC100A
6IN LED RECESSED TRIM W/ NIGHT LIGHT 1 $25.24 $25.24 1003456565 53804101
6IN LED RECESSED TRIM W/ NIGHT LIGHT 1 $25.24 $25.24 1003456565 53804101
HB WRLS PLUGIN CHIME NIGHT LIGHT KIT 1 $25.04 $25.04 1001417373 HB-7776-02
HB WRLS PLUGIN CHIME NIGHT LIGHT KIT 1 $25.04 $25.04 1001417373 HB-7776-02
7 IN. EASY LIGHT W/ COLOR CHOICE 1 $24.57 $24.57 1002312164 54690111
"NORTHMOORE 1LT 8"" ORB FM DNI" 1 $24.54 $24.54 1003340649 60355
"NORTHMOORE 1LT 8"" ORB FM DNI" 1 $24.54 $24.54 1003340649 60355
24 FT. 12-LIGHT LED STRING LIGHT 1 $24.35 $24.35 1004683594 10366
BRYSON 1LT CAGE SCONCE MATTE BLK 1 $24.05 $24.05 1007288215 65740
BRYSON 1LT CAGE SCONCE MATTE BLK 1 $24.05 $24.05 1007288215 65740
STOCKPORT 2LT WALL SCONCE MATTE BLK 1 $23.92 $23.92 1007288220 65742
STOCKPORT 2LT WALL SCONCE MATTE BLK 1 $23.92 $23.92 1007288220 65742
12IN SQUARE LED PUFF 1 $23.84 $23.84 1000236636 54616241
12IN SQUARE LED PUFF 1 $23.84 $23.84 1000236636 54616241
12IN SQUARE LED PUFF 1 $23.84 $23.84 1000236636 54616241
12IN SQUARE LED PUFF 1 $23.84 $23.84 1000236636 54616241
12IN SQUARE LED PUFF 1 $23.84 $23.84 1000236636 54616241
12IN SQUARE LED PUFF 1 $23.84 $23.84 1000236636 54616241
12IN SQUARE LED PUFF 1 $23.84 $23.84 1000236636 54616241
12IN SQUARE LED PUFF 1 $23.84 $23.84 1000236636 54616241
12IN SQUARE LED PUFF 1 $23.84 $23.84 1000236636 54616241
6FT. 16/2 SPT-2 BROWN 3-OUTLET HOUSE 10 $2.38 $23.80 1005744880 EC670606
"NORTHMOORE 1LT 8"" ORB FM DNI" 1 $23.70 $23.70 1003340649 60355
"NORTHMOORE 1LT 8"" ORB FM DNI" 1 $23.70 $23.70 1003340649 60355
"NORTHMOORE 1LT 8"" ORB FM DNI" 1 $23.70 $23.70 1003340649 60355
12IN SQUARE LED PUFF 1 $23.67 $23.67 1000236636 54616241
12IN ROUND LED PUFF 1 $23.57 $23.57 1000236597 54074341
12IN ROUND LED PUFF 1 $23.57 $23.57 1000236597 54074341
12IN ROUND LED PUFF 1 $23.57 $23.57 1000236597 54074341
12IN ROUND LED PUFF 1 $23.57 $23.57 1000236597 54074341
12IN ROUND LED PUFF 1 $23.57 $23.57 1000236597 54074341
12IN ROUND LED PUFF 1 $23.57 $23.57 1000236597 54074341
12IN ROUND LED PUFF 1 $23.57 $23.57 1000236597 54074341
12IN ROUND LED PUFF 1 $23.57 $23.57 1000236597 54074341
12IN ROUND LED PUFF 1 $23.57 $23.57 1000236597 54074341
12IN SQUARE LED PUFF 1 $23.51 $23.51 1000236636 54616241
12IN ROUND LED PUFF 1 $23.42 $23.42 1000236597 54074341
4IN LED RECESSED TRIM W/ NIGHT LIGHT 1 $23.15 $23.15 1004061811 53805101
4IN LED RECESSED TRIM W/ NIGHT LIGHT 1 $23.15 $23.15 1004061811 53805101
4IN LED RECESSED TRIM W/ NIGHT LIGHT 1 $23.15 $23.15 1004061811 53805101
4IN LED RECESSED TRIM W/ NIGHT LIGHT 1 $23.15 $23.15 1004061811 53805101
4IN LED RECESSED TRIM W/ NIGHT LIGHT 1 $23.15 $23.15 1004061811 53805101
4IN LED RECESSED TRIM W/ NIGHT LIGHT 1 $23.15 $23.15 1004061811 53805101
CARLON NEW WORK 1G 22.5CU 24 $0.96 $23.04 254265 B122A-UPC
2FT STRIP LIGHT LINKABLE 1 $22.58 $22.58 1001390177 1001390177
2FT STRIP LIGHT LINKABLE 1 $22.58 $22.58 1001390177 1001390177
2FT STRIP LIGHT LINKABLE 1 $22.58 $22.58 1001390177 1001390177
STOCKPORT 2LT WALL SCONCE MATTE BLK 1 $22.46 $22.46 1007288220 65742
2FT STRIP LIGHT LINKABLE 1 $22.41 $22.41 1001390177 1001390177
2FT STRIP LIGHT LINKABLE 1 $22.38 $22.38 1001390177 1001390177
2FT STRIP LIGHT LINKABLE 1 $22.38 $22.38 1001390177 1001390177
"SPIN LIGHT 7"" LED PULL CHAIN BN FM" 1 $21.97 $21.97 1005613657 565901110
12 SQUARE CCT PUFF 1 $21.76 $21.76 1009183189 564491111
"525 SERVICE ENTRANCE CAP 2""" 1 $21.56 $21.56 1001024571 R5133743
CARLON NEW WORK 1G 8CU SHALLOW 15 $1.43 $21.45 279667 B108B-UPC
4 GANG WELDED/FLUSH MOUNT BRACKET 1 $21.42 $21.42 1007812622 687
M015 UNIV 3/4 IN. 1-HOLE STRAP 50 PK 1 $21.20 $21.20 1005871340 62107B
ULTRA-LOW GLARE 6 IN. SELECTABLE INT 1 $21.09 $21.09 1004680853 53197301
010 JUNCTION BOX 6X6X4 1 $21.09 $21.09 499979 R5133710
010 JUNCTION BOX 6X6X4 1 $21.09 $21.09 499979 R5133710
12IN ROUND CCT PUFF 1 $21.07 $21.07 1009184210 564481111
ULTRA-LOW GLARE 6 IN. SELECTABLE INT 1 $21.04 $21.04 1004680853 53197301
ULTRA-LOW GLARE 6 IN. SELECTABLE INT 1 $20.87 $20.87 1004680853 53197301
7 IN LED EASY LIGHT WITH PULL CHAIN 1 $20.82 $20.82 1001224334 54617142
7 IN LED EASY LIGHT WITH PULL CHAIN 1 $20.50 $20.50 1001224334 54617142
6 IN LED RECESSED TRIM CCT LUMEN SEL 1 $20.17 $20.17 1002948990 53801101
6 IN LED RECESSED TRIM CCT LUMEN SEL 1 $20.17 $20.17 1002948990 53801101
6 IN LED RECESSED TRIM CCT LUMEN SEL 1 $20.17 $20.17 1002948990 53801101
ULTRA-LOW GLARE 6 IN. SELECTABLE INT 1 $20.13 $20.13 1004680853 53197301
ULTRA-LOW GLARE 6 IN. SELECTABLE INT 1 $20.13 $20.13 1004680853 53197301
6 IN LED RECESSED TRIM CCT LUMEN SEL 1 $20.02 $20.02 1002948990 53801101
6 IN LED RECESSED TRIM CCT LUMEN SEL 1 $20.02 $20.02 1002948990 53801101
6 IN LED RECESSED TRIM CCT LUMEN SEL 1 $20.02 $20.02 1002948990 53801101
6 IN LED RECESSED TRIM CCT LUMEN SEL 1 $20.02 $20.02 1002948990 53801101
6 IN LED RECESSED TRIM CCT LUMEN SEL 1 $19.98 $19.98 1002948990 53801101
6 IN LED RECESSED TRIM CCT LUMEN SEL 1 $19.98 $19.98 1002948990 53801101
6 IN LED RECESSED TRIM CCT LUMEN SEL 1 $19.98 $19.98 1002948990 53801101
6 IN LED RECESSED TRIM CCT LUMEN SEL 1 $19.98 $19.98 1002948990 53801101
6 IN LED RECESSED TRIM CCT LUMEN SEL 1 $19.65 $19.65 1002948990 53801101
15IN LED ADJ TASK LAMP BLACK 1 $18.33 $18.33 1009897280 61000036
CE 10IN 3CCT TWIST DISK LGHT 1 $18.16 $18.16 1006367438 564131110
"LIQTITE CONN IRON 90DEG 1/2""" 6 $3.02 $18.12 263713 3422-8
CE 10IN 3CCT TWIST DISK LGHT 1 $18.11 $18.11 1006367438 564131110
16/3 50' HUSKY EXTENSION CORD 1 $17.94 $17.94 793812 HUSKY16350
16/3 50' HUSKY EXTENSION CORD 1 $17.94 $17.94 793812 HUSKY16350
16/3 50' HUSKY EXTENSION CORD 1 $17.94 $17.94 793812 HUSKY16350
CE 10IN 3CCT TWIST DISK LGHT 1 $17.92 $17.92 1006367438 564131110
CE 10IN 3CCT TWIST DISK LGHT 1 $17.91 $17.91 1006367438 564131110
CE 10IN 3CCT TWIST DISK LGHT 1 $17.87 $17.87 1006367438 564131110
WIRED CHIMES BRUSHED NICKEL 1 $17.65 $17.65 1008626461 18000040
"24"" PLUG IN UC LED LIGHT WHT CCT" 1 $17.32 $17.32 1005908985 54194202
4 IN RECESSED LED TRIM CCT LUMEN SEL 1 $17.31 $17.31 1002948976 53802101
4 IN RECESSED LED TRIM CCT LUMEN SEL 1 $17.31 $17.31 1002948976 53802101
7 IN LED WHITE LOW PROFILE LIGHT 1 $17.20 $17.20 1001615888 54663141
7 IN LED WHITE LOW PROFILE LIGHT 1 $17.20 $17.20 1001615888 54663141
7 IN LED WHITE LOW PROFILE LIGHT 1 $17.20 $17.20 1001615888 54663141
7 IN LED WHITE LOW PROFILE LIGHT 1 $17.20 $17.20 1001615888 54663141
7 IN LED WHITE LOW PROFILE LIGHT 1 $17.20 $17.20 1001615888 54663141
7 IN LED WHITE LOW PROFILE LIGHT 1 $17.20 $17.20 1001615888 54663141
7 IN LED WHITE LOW PROFILE LIGHT 1 $17.20 $17.20 1001615888 54663141
"24"" PLUG IN UC LED LIGHT WHT CCT" 1 $17.17 $17.17 1005908985 54194202
"24"" PLUG IN UC LED LIGHT WHT CCT" 1 $17.13 $17.13 1005908985 54194202
"24"" PLUG IN UC LED LIGHT WHT CCT" 1 $17.13 $17.13 1005908985 54194202
WIRED DOOR BELL TRI-VOLT TRANSFORMER 1 $17.12 $17.12 1008644311 18000045
WIRED DOOR BELL TRI-VOLT TRANSFORMER 1 $17.12 $17.12 1008644311 18000045
WIRED DOOR BELL TRI-VOLT TRANSFORMER 1 $17.12 $17.12 1008644311 18000045
2-Gang 32 cu. in. Blue PVC New Work Electrical Switch and Outlet Box 7 $2.43 $17.01 202509 B232ACP
7 IN LED WHITE LOW PROFILE LIGHT 1 $16.96 $16.96 1001615888 54663141
4 GANG WELDED/FLUSH MOUNT BRACKET 1 $16.79 $16.79 876843 4G4DV12-10R
4 GANG WELDED/FLUSH MOUNT BRACKET 1 $16.79 $16.79 876843 4G4DV12-10R
"CARLON ENT COIL 1/2"" X 25'" 1 $16.54 $16.54 401075 12005-025
"CARLON ENT COIL 1/2"" X 25'" 1 $16.54 $16.54 401075 12005-025
1/2 in. x 25 ft. Ele 1 $16.54 $16.54 401075 12005-025
1/2 in. x 25 ft. Ele 1 $16.54 $16.54 401075 12005-025
1/2 in. x 25 ft. Ele 1 $16.54 $16.54 401075 12005-025
1/2 in. x 25 ft. Ele 1 $16.54 $16.54 401075 12005-025
1/2 in. x 25 ft. Ele 1 $16.54 $16.54 401075 12005-025
"18"" PLUG IN UC LED LIGHT WHT CCT" 1 $16.19 $16.19 1005909044 54195202
HALEX 60AMP NON FUSED ACD 1 $15.67 $15.67 589683 TFN60RCP
HALEX 60AMP NON FUSED ACD 1 $15.67 $15.67 589683 TFN60RCP
MET IN-USE MULTI-APPL CVR 1G VERT 1 $15.29 $15.29 1000519225 658307
MET IN-USE MULTI-APPL CVR 1G VERT 1 $15.29 $15.29 1000519225 658307
MET IN-USE MULTI-APPL CVR 1G VERT 1 $15.29 $15.29 1000519225 658307
HB WIRED DOOR CHIME WHITE 1 $15.01 $15.01 1003008625 HB-2748-03
005 JUNCTION BOX 4X4X4 1 $14.82 $14.82 499948 9601
12IN PLUG IN UC LED LIGHT WHT CCT 1 $14.66 $14.66 1005909091 54196202
12IN PLUG IN UC LED LIGHT WHT CCT 1 $14.65 $14.65 1005909091 54196202
12IN PLUG IN UC LED LIGHT WHT CCT 1 $14.65 $14.65 1005909091 54196202
12IN PLUG IN UC LED LIGHT WHT CCT 1 $14.63 $14.63 1005909091 54196202
"LIQTITE CONN IRON 90DEG 3/4""" 3 $4.58 $13.74 263727 3423-8
WIRELESS DOOR BELL PUSH BUTTON 1 $13.70 $13.70 1002004031 RPWL401B
HB 10-LT BELL SHAPED RATTAN SL 1 $13.34 $13.34 1005564007 10579
"4"" SQ COVER 3/4"" RAISED 2 DEVICE" 6 $2.17 $13.02 1007810578 8779
3 GANG WELDED/FLUSH MOUNT BRACKET 1 $12.96 $12.96 876826 686
"CARLON ENT 1/2"" 2G RAISED COVER" 9 $1.40 $12.60 489654 A420R-CAR
4-Gang 71 cu. in. PV 1 $11.89 $11.89 547861 B468R
CARLON OLD WORK 4G 71CU 1 $11.89 $11.89 547861 B468R
CARLON OLD WORK 4G 71CU 1 $11.89 $11.89 547861 B468R
4-Gang 71 cu. in. PV 1 $11.89 $11.89 547861 B468R
"THREADED ROD 1/2"" X 10'" 1 $11.75 $11.75 236759 ZR1048
CARLON NEW WORK 3G 49CU ADJUSTABLE 1 $11.72 $11.72 243741 B349ADJ
3-Gang 49 cu. in. PVC New Work Adjustable Electrical Box 1 $11.72 $11.72 243741 B349ADJ
CARLON NEW WORK 3G 49CU ADJUSTABLE 1 $11.72 $11.72 243741 B349ADJ
14 GA STRUT CHANNEL GOLD X 2' 1 $11.46 $11.46 1004178110 ZB1400HS 2
CE STEEL MOUNTING ARM FOR AREA/FLOOD 1 $10.98 $10.98 1008341389 104-19900004-1
HB WRLS PUSH BUTTON RECT BRUSH NCKL 1 $10.90 $10.90 1001417367 HB-7705-02
"S155 SE WIREHLDR ADJUST 1-1/4""-3"" EA" 1 $10.85 $10.85 140503 60525
FLANGE CLIP VERT CONDUIT CLIP 1 $10.68 $10.68 467179 ZCC1/2 3/4-H1/4
FLANGE CLIP VERT CONDUIT CLIP 1 $10.68 $10.68 467179 ZCC1/2 3/4-H1/4
FLANGE CLIP VERT CONDUIT CLIP 1 $10.68 $10.68 467179 ZCC1/2 3/4-H1/4
3 GANG 3/4 IN RAISED COVER 1 $10.36 $10.36 339164 822
3 GANG 3/4 IN RAISED COVER 1 $10.36 $10.36 339164 822
3 GANG 3/4 IN RAISED COVER 1 $10.36 $10.36 339164 822
"285 CONDUIT BODY 1/2"" & 3/4"" TYPE X" 1 $10.19 $10.19 499917 R5133690
"285 CONDUIT BODY 1/2"" & 3/4"" TYPE X" 1 $10.19 $10.19 499917 R5133690
"285 CONDUIT BODY 1/2"" & 3/4"" TYPE X" 1 $10.19 $10.19 499917 R5133690
"285 CONDUIT BODY 1/2"" & 3/4"" TYPE X" 1 $10.19 $10.19 499917 R5133690
"285 CONDUIT BODY 1/2"" & 3/4"" TYPE X" 1 $10.19 $10.19 499917 R5133690
BRACKET CORNER ANGLE 4-HOLE SILVER 3 $3.34 $10.02 537896 ZAB205EG
4-Hole 90 Degree Ang 3 $3.34 $10.02 537896 ZAB205EG
16/3 25' HUSKY EXTENSION CORD 1 $9.98 $9.98 791980 AW62667
"L240 LIQTITE CONN IRON 90DEG 1""" 1 $9.92 $9.92 1009270774 66910
"L240 LIQTITE CONN IRON 90DEG 1""" 1 $9.92 $9.92 1009270774 66910
"L240 LIQTITE CONN IRON 90DEG 1""" 1 $9.92 $9.92 1009270774 66910
"L240 LIQTITE CONN IRON 90DEG 1""" 1 $9.92 $9.92 1009270774 66910
"L240 LIQTITE CONN IRON 90DEG 1""" 1 $9.92 $9.92 1009270774 66910
"L240 LIQTITE CONN IRON 90DEG 1""" 1 $9.92 $9.92 1009270774 66910
WIRELESS BATTERY OPERATED DOORBELL K 1 $9.83 $9.83 1008626455 18000030
ME INLINE INTERSYSTEM BONDING BRIDGE 1 $9.81 $9.81 1001253103 MEIBB
ME INLINE INTERSYSTEM BONDING BRIDGE 1 $9.81 $9.81 1001253103 MEIBB
CARLON NEW WORK 2G 34CU ADJUSTABLE 1 $9.73 $9.73 373069 B234ADJC
CARLON NEW WORK 2G 34CU ADJUSTABLE 1 $9.73 $9.73 373069 B234ADJC
CARLON NEW WORK 2G 34CU ADJUSTABLE 1 $9.73 $9.73 373069 B234ADJC
CARLON NEW WORK 2G 34CU ADJUSTABLE 1 $9.73 $9.73 373069 B234ADJC
3 GANG 3/4 IN RAISED COVER 1 $9.42 $9.42 339164 822
WIRED LED LIGHTED DOOR BELL PUSH BUT 1 $9.23 $9.23 1004856066 HB-709-00
L220 LIQTITE CONN IRON 90DEG INS 3/4 1 $9.07 $9.07 1009270779 86907
L220 LIQTITE CONN IRON 90DEG INS 3/4 1 $9.07 $9.07 1009270779 86907
L220 LIQTITE CONN IRON 90DEG INS 3/4 1 $9.07 $9.07 1009270779 86907
90 DEG. LIQ. TITE CONNECTOR 1 $9.01 $9.01 263730 3424-8
CARLON NEW WORK 4G 69CU SUPER BLUE 1 $8.98 $8.98 381640 BH464A
CARLON NEW WORK 4G 69CU SUPER BLUE 1 $8.98 $8.98 381640 BH464A
CARLON NEW WORK 4G 69CU SUPER BLUE 1 $8.98 $8.98 381640 BH464A
CARLON NEW WORK 4G 69CU SUPER BLUE 1 $8.98 $8.98 381640 BH464A
S145 SE HOOD NM 1/0-2/0 EA 1 $8.90 $8.90 770552 77602
FLANGE CLIP TO HRTZ CONDUIT CLIP 1 $8.87 $8.87 467118 ZCC1/2 3/4-F1/4
WIRED LED LIGHTED PUSH BUTTON IN BRU 1 $8.72 $8.72 1004856008 HB-556-00
"WIRED PUSH BUTTON, BRUSHED NICKEL, L" 1 $8.72 $8.72 1008644304 18000037
NM IN-USE COVER 1-GANG CLEAR 1 $8.66 $8.66 234165 MM410C
CARLON OLD WORK 1G 14CU 4 $2.16 $8.64 202460 B114RB
4X2-/8 DRAWN W/TS BRKT 1/2+3/4 KO 1 $8.58 $8.58 1007810585 685SP
4X2-/8 DRAWN W/TS BRKT 1/2+3/4 KO 1 $8.58 $8.58 1007810585 685SP
WIRED DB PUSH BUTTON BLK LED 1 $8.25 $8.25 1008718089 18000035
CARLON ENT NEW WORK 4 SQ 2G 38CU 1 $8.05 $8.05 212185 A238-CAR
CARLON ENT NEW WORK 4 SQ 2G 38CU 1 $8.05 $8.05 212185 A238-CAR
OLD WORK SWITCH BOX W/CLAMPS 1 $7.73 $7.73 1007810617 512
"3/8"" NYLON CONE NUT GOLD PK/5" 1 $7.69 $7.69 1002150996 ZCM100 3/8
"3/8"" NYLON CONE NUT GOLD PK/5" 1 $7.69 $7.69 1002150996 ZCM100 3/8
"3/8"" NYLON CONE NUT GOLD PK/5" 1 $7.69 $7.69 1002150996 ZCM100 3/8
"3/8"" NYLON CONE NUT GOLD PK/5" 1 $7.69 $7.69 1002150996 ZCM100 3/8
"L235 LIQTITE CONN IRON 90DEG 3/4""" 1 $7.61 $7.61 1009270780 66907
CARLON OLD WORK 3G 55CU 1 $7.54 $7.54 495730 B355R
2-1/8 2G HDY BOX FLT BRKT 1/2 KO 1 $7.54 $7.54 101354 681
CARLON OLD WORK 3G 55CU 1 $7.54 $7.54 495730 B355R
CARLON OLD WORK 3G 55CU 1 $7.54 $7.54 495730 B355R
CARLON OLD WORK 3G 55CU 1 $7.54 $7.54 495730 B355R
CARLON OLD WORK 3G 55CU 1 $7.54 $7.54 495730 B355R
1-1/2 in. 90-Degree 1 $7.53 $7.53 1007812683 R5233827
1-1/2 in. 90-Degree 1 $7.53 $7.53 1007812683 R5233827
1-1/2 in. 90-Degree 1 $7.53 $7.53 1007812683 R5233827
1-1/2 in. 90-Degree 1 $7.53 $7.53 1007812683 R5233827
1-1/2 in. 90-Degree 1 $7.53 $7.53 1007812683 R5233827
1-1/2 in. 90-Degree 1 $7.53 $7.53 1007812683 R5233827
4-Gang 60 cu. in. PV 1 $7.34 $7.34 469343 B455AR-UPC
4-Gang 60 cu. in. PV 1 $7.34 $7.34 469343 B455AR-UPC
"CARLON NW CEILING 4"" 25CU SB W/BAR" 1 $7.06 $7.06 272152 BH525H
"CARLON NW CEILING 4"" 25CU SB W/BAR" 1 $7.06 $7.06 272152 BH525H
"CARLON NW CEILING 4"" 25CU SB W/BAR" 1 $7.06 $7.06 272152 BH525H
"CARLON NW CEILING 4"" 25CU SB W/BAR" 1 $7.06 $7.06 272152 BH525H
"CARLON NW CEILING 4"" 25CU SB W/BAR" 1 $7.06 $7.06 272152 BH525H
"CARLON NW CEILING 4"" 25CU SB W/BAR" 1 $7.06 $7.06 272152 BH525H
4 in. 24.5 cu. in. H 1 $7.06 $7.06 272152 BH525H
4.7IN UTILITY LIGHT WITH PULL CHAIN 1 $7.04 $7.04 1006347262 564211410
4.7IN UTILITY LIGHT WITH PULL CHAIN 1 $7.04 $7.04 1006347262 564211410
4.7IN UTILITY LIGHT WITH PULL CHAIN 1 $7.04 $7.04 1006347262 564211410
4.7IN UTILITY LIGHT WITH PULL CHAIN 1 $7.04 $7.04 1006347262 564211410
"CARLON NW CEILING 4"" 20CU W/BAR&LUG" 1 $7.02 $7.02 352366 B620KGR-UPC
"CARLON NW CEILING 4"" 20CU W/BAR&LUG" 1 $7.02 $7.02 352366 B620KGR-UPC
"CARLON NW CEILING 4"" 20CU W/BAR&LUG" 1 $7.02 $7.02 352366 B620KGR-UPC
"CARLON NW CEILING 4"" 20CU W/BAR&LUG" 1 $7.02 $7.02 352366 B620KGR-UPC
"CARLON NW CEILING 4"" 20CU W/BAR&LUG" 1 $7.02 $7.02 352366 B620KGR-UPC
"CARLON NW CEILING 4"" 20CU W/BAR&LUG" 1 $7.02 $7.02 352366 B620KGR-UPC
2-1/8 2G HDY BOX FLT BRKT 1/2 KO 1 $6.98 $6.98 1007801011 681SP
"WIRELESS PUSH BUTTON, WHITE" 1 $6.98 $6.98 1008504855 18000008
HB WIRELESS PUSH BUTTON WHITE 1 $6.98 $6.98 1001407853 HB-7797-02
4.7IN UTILITY LIGHT WITH PULL CHAIN 1 $6.93 $6.93 1006347262 564211410
"SQUARE WASHER SILVER 3/8"" PK/5" 1 $6.69 $6.69 1004102471 ZAB2413/8MEG
"1/2"" NYLON CONE NUT GOLD PK/5" 1 $6.68 $6.68 1002151010 ZCM1001/2-10
1-1/2 in. 45-Degree 1 $6.66 $6.66 1001070171 R5233767
1-1/2 in. 45-Degree 1 $6.66 $6.66 1001070171 R5233767
"CARLON NEW WORK CEILING 4"" 8CU" 1 $6.61 $6.61 268385 B708-SHK
"CARLON NEW WORK CEILING 4"" 8CU" 1 $6.61 $6.61 268385 B708-SHK
"CARLON NEW WORK CEILING 4"" 8CU" 1 $6.61 $6.61 268385 B708-SHK
"CARLON NEW WORK CEILING 4"" 8CU" 1 $6.61 $6.61 268385 B708-SHK
"CARLON NEW WORK CEILING 4"" 8CU" 1 $6.61 $6.61 268385 B708-SHK
"CARLON NEW WORK CEILING 4"" 8CU" 1 $6.61 $6.61 268385 B708-SHK
"CARLON NEW WORK CEILING 4"" 8CU" 1 $6.61 $6.61 268385 B708-SHK
"CARLON NEW WORK CEILING 4"" 8CU" 1 $6.61 $6.61 268385 B708-SHK
"E305 EMT COMP COUPLING 3/4"" ZNC PK5" 1 $6.60 $6.60 895327 22222
CARLON OLD WORK 2G 34CU SUPER BLUE 1 $6.58 $6.58 419044 BH234R
2-Gang 34 cu. in. Ha 1 $6.58 $6.58 419044 BH234R
CONDUIT HANGER CLIP FROM DROP WIRE 1 $6.58 $6.58 494518 ZCK535
"230 PULL ELBOW 3/4""" 2 $3.21 $6.42 202649 R5240102
"SQUARE WASHER GOLD 1/4"" PK/5 MA" 1 $6.36 $6.36 1004102491 ZAB2411/4M
"SQUARE WASHER SILVER 1/4"" PK/5" 1 $6.36 $6.36 1004102464 ZAB2411/4MEG
165 MALE TERMINAL ADAPTER 3/4IN PK15 1 $6.30 $6.30 788697 R5140104M
CARLON LOW VOLT NEW WORK 2G DUAL VOL 1 $6.30 $6.30 196653 SC200DVR
CARLON LOW VOLT NEW WORK 2G DUAL VOL 1 $6.30 $6.30 196653 SC200DVR
HB WIRELESS PUSH BUTTON WHITE 1 $6.24 $6.24 1009702089 18000225
HB WIRELESS PUSH BUTTON WHITE 1 $6.24 $6.24 1009702089 18000225
"2 GANG HANDY BOX 2-1/8"" DEEP 1/2+3/4" 1 $5.95 $5.95 1007801009 683SP
"2 GANG HANDY BOX 2-1/8"" DEEP 1/2+3/4" 1 $5.95 $5.95 1007801009 683SP
CARLON NEW WORK 3G 52CU SUPER BLUE 1 $5.94 $5.94 381568 BH353A
CARLON NEW WORK 3G 52CU SUPER BLUE 1 $5.94 $5.94 381568 BH353A
CARLON NEW WORK 3G 52CU SUPER BLUE 1 $5.94 $5.94 381568 BH353A
CARLON NEW WORK 3G 52CU SUPER BLUE 1 $5.94 $5.94 381568 BH353A
CARLON NEW WORK 3G 52CU SUPER BLUE 1 $5.94 $5.94 381568 BH353A
CARLON NEW WORK 3G 52CU SUPER BLUE 1 $5.94 $5.94 381568 BH353A
4.7IN UTILITY LIGHT - SWITCH CONTROL 1 $5.81 $5.81 1006346634 564212410
"E040 EMT RAINTGHT CONN 1/2"" PK5" 1 $5.80 $5.80 174625 26250
"1/4"" NYLON CONE NUT GOLD PK/5" 1 $5.80 $5.80 235949 ZCM100 1/4
CARLON MGANG NM BOX EXTENDER 2/BG 1 $5.78 $5.78 1000019798 B1MGEXT-2
CARLON MGANG NM BOX EXTENDER 2/BG 1 $5.78 $5.78 1000019798 B1MGEXT-2
CARLON MGANG NM BOX EXTENDER 2/BG 1 $5.78 $5.78 1000019798 B1MGEXT-2
CARLON MGANG NM BOX EXTENDER 2/BG 1 $5.78 $5.78 1000019798 B1MGEXT-2
CARLON MGANG NM BOX EXTENDER 2/BG 1 $5.78 $5.78 1000019798 B1MGEXT-2
"405 CONDUIT BODY 1 1/4"" TYPE LB" 1 $5.78 $5.78 161128 E986GR
CARLON MGANG NM BOX EXTENDER 2/BG 1 $5.78 $5.78 1000019798 B1MGEXT-2
"405 CONDUIT BODY 1 1/4"" TYPE LB" 1 $5.78 $5.78 161128 E986GR
CARLON MGANG NM BOX EXTENDER 2/BG 1 $5.78 $5.78 1000019798 B1MGEXT-2
"405 CONDUIT BODY 1 1/4"" TYPE LB" 1 $5.78 $5.78 161128 E986GR
CARLON MGANG NM BOX EXTENDER 2/BG 1 $5.78 $5.78 1000019798 B1MGEXT-2
"125 FSC 1/2"" BOX 2 GANG 32CU GRAY" 1 $5.69 $5.69 534749 E9812DR
4-11/16 SQ BOX 1/2 X 3/4 KO 1 $5.59 $5.59 1007810576 8257SP
"E405 EMT SETSCREW CONN INS 2"" STL EA" 1 $5.59 $5.59 705039 82720
"SPRING NUT 3/8"" PK/5" 1 $5.56 $5.56 798567 ZA100 3/8
"SPRING NUT 3/8"" PK/5" 1 $5.56 $5.56 798567 ZA100 3/8
"SPRING NUT 3/8"" PK/5" 1 $5.56 $5.56 798567 ZA100 3/8
"4-11/16 SQUARE BOX 3/4"" X 1"" KO" 1 $5.51 $5.51 1007810568 8265SP
"4-11/16 SQUARE BOX 3/4"" X 1"" KO" 1 $5.51 $5.51 1007810568 8265SP
"E690 EMT CONDUIT BODY LB 3/4"" EA" 1 $5.48 $5.48 937660 58707
"CARLON NEWWORK CEILING 4"" 20CU W/BAR" 1 $5.37 $5.37 202584 B620KR-UPC
"CARLON NEWWORK CEILING 4"" 20CU W/BAR" 1 $5.37 $5.37 202584 B620KR-UPC
"CARLON NEWWORK CEILING 4"" 20CU W/BAR" 1 $5.37 $5.37 202584 B620KR-UPC
"CARLON NEWWORK CEILING 4"" 20CU W/BAR" 1 $5.37 $5.37 202584 B620KR-UPC
"CARLON NEWWORK CEILING 4"" 20CU W/BAR" 1 $5.37 $5.37 202584 B620KR-UPC
"R185 RGD GROUNDING LOCKNUT 2"" EA" 1 $5.35 $5.35 543929 1820
CARLON LOW VOLT OLD WORK 2G DUAL VOL 1 $5.28 $5.28 243179 E-18-4-DVR
CARLON LOW VOLT OLD WORK 2G DUAL VOL 1 $5.28 $5.28 243179 E-18-4-DVR
CARLON LOW VOLT OLD WORK 2G DUAL VOL 1 $5.28 $5.28 243179 E-18-4-DVR
CARLON LOW VOLT OLD WORK 2G DUAL VOL 1 $5.28 $5.28 243179 E-18-4-DVR
CARLON 2G 48.2CU. PVC NEW/OLD WORK 1 $5.21 $5.21 1003238908 B249B
CARLON 2G 48.2CU. PVC NEW/OLD WORK 1 $5.21 $5.21 1003238908 B249B
"395 ELBOW 1 1/4"" SCH80 90DEG PLN END" 1 $5.12 $5.12 704384 UB9AG-CAR
"395 ELBOW 1 1/4"" SCH80 90DEG PLN END" 1 $5.12 $5.12 704384 UB9AG-CAR
"395 ELBOW 1 1/4"" SCH80 90DEG PLN END" 1 $5.12 $5.12 704384 UB9AG-CAR
"2-1/2"" D OLD WORK BOX W/ 1/2 KOS" 1 $5.07 $5.07 910597 CDOWTG-16R
"2-1/2"" D OLD WORK BOX W/ 1/2 KOS" 1 $5.07 $5.07 910597 CDOWTG-16R
"3/4"" COBRA PIPE CLAMP PK/2" 1 $5.04 $5.04 1002151001 CPC075-2
3/4 in. PVC Conduit 1 $5.01 $5.01 795066 R5133737M
"1/2""-1"" SPEC. GRADE GROUND CLAMP-EA" 1 $4.98 $4.98 404627 JD-B1-15
CARLON OLD WORK 1G 17CU SHALLOW 1 $4.90 $4.90 212695 B117RSW
CARLON OLD WORK 1G 17CU SHALLOW 1 $4.90 $4.90 212695 B117RSW
CARLON OLD WORK 1G 17CU SHALLOW 1 $4.90 $4.90 212695 B117RSW
1-Gang 17 cu. in. PVC Shallow Old Work Electrical Switch and Outlet Box 1 $4.90 $4.90 212695 B117RSW
CARLON OLD WORK 1G 17CU SHALLOW 1 $4.90 $4.90 212695 B117RSW
WPRF TOGGLE SWITCH COVER 1G WHT 1 $4.79 $4.79 1007804389 E98TSCM-CAR
WPRF TOGGLE SWITCH COVER 1G WHT 1 $4.79 $4.79 1007804389 E98TSCM-CAR
WPRF TOGGLE SWITCH COVER 1G WHT 1 $4.79 $4.79 1007804389 E98TSCM-CAR
WPRF TOGGLE SWITCH COVER 1G WHT 1 $4.79 $4.79 1007804389 E98TSCM-CAR
"SPRING NUT 1/2"" PK/5" 1 $4.76 $4.76 798602 ZA100 1/2
"SPRING NUT 1/2"" PK/5" 1 $4.76 $4.76 798602 ZA100 1/2
"SPRING NUT 1/2"" PK/5" 1 $4.76 $4.76 798602 ZA100 1/2
"LIQTITE CONN STEEL STRAIGHT 1""" 1 $4.66 $4.66 263694 3404-8
HANDY BOX DUPLEX RECEP COVER 8 $0.58 $4.64 101222 864
"LIQTITE CONN IRON 90DEG 3/4""" 1 $4.58 $4.58 263727 3423-8
"LIQTITE CONN IRON 90DEG 3/4""" 1 $4.58 $4.58 263727 3423-8
"SWITCH BOX 2 1/2"" DEEP" 1 $4.55 $4.55 1007848402 518
"SWITCH BOX 2 1/2"" DEEP" 1 $4.55 $4.55 1007848402 518
"025 CLAMP NM 2-HOLE STRAP 1/2"" PK25" 1 $4.55 $4.55 793885 R5133736M
"SPRING NUT 1/4"" PK/5" 1 $4.47 $4.47 798600 ZA100 1/4
"SPRING NUT 1/4"" PK/5" 1 $4.47 $4.47 798600 ZA100 1/4
CARLON OLD WORK 1G 18CU SUPER BLUE 1 $4.46 $4.46 419043 BH118R
CARLON NW 1G 21CU ADJUST HORIZ MOUNT 1 $4.44 $4.44 910598 B121ADJH
"L175 LIQTITE CONN STEEL INSUL 3/4""" 1 $4.41 $4.41 1009270778 86207
1-Gang 21 cu. in. PVC New Work Electrical Switch and Outlet Box with Adjustable Bracket 1 $4.41 $4.41 208653 B121ADJ
1-Gang 21 cu. in. PVC New Work Electrical Switch and Outlet Box with Adjustable Bracket 1 $4.41 $4.41 208653 B121ADJ
1-Gang 21 cu. in. PVC New Work Electrical Switch and Outlet Box with Adjustable Bracket 1 $4.41 $4.41 208653 B121ADJ
CARLON NEW WORK 1G 21CU ADJUSTABLE 1 $4.41 $4.41 208653 B121ADJ
CARLON NEW WORK 1G 21CU ADJUSTABLE 1 $4.41 $4.41 208653 B121ADJ
CARLON NEW WORK 1G 21CU ADJUSTABLE 1 $4.41 $4.41 208653 B121ADJ
CARLON NEW WORK 1G 21CU ADJUSTABLE 1 $4.41 $4.41 208653 B121ADJ
1-Gang 21 cu. in. PVC New Work Electrical Switch and Outlet Box with Adjustable Bracket 1 $4.41 $4.41 208653 B121ADJ
1-Gang 21 cu. in. PV 1 $4.41 $4.41 208653 B121ADJ
1-Gang 21 cu. in. PV 1 $4.41 $4.41 208653 B121ADJ
"4-11/16 SQUARE BOX 3/4"" X 1"" KO" 1 $4.36 $4.36 295912 8265
"4"" SQ BOX W/FM BRKT NM CLAMPS" 1 $4.27 $4.27 338265 223
2-Gang Low-Voltage M 1 $4.27 $4.27 547842 SC200RR
2-Gang Low-Voltage M 1 $4.27 $4.27 547842 SC200RR
"3/8""-1"" BRONZE LAY-IN GROUND CLAMP" 1 $4.25 $4.25 260499 JDLI-B1-10
"3/8""-1"" BRONZE LAY-IN GROUND CLAMP" 1 $4.25 $4.25 260499 JDLI-B1-10
"N065 NM CLAMP CONN 3/4"" PK5" 1 $4.22 $4.22 279782 20512
"N065 NM CLAMP CONN 3/4"" PK5" 1 $4.22 $4.22 279782 20512
4-11/16 SQ BOX 1/2 X 3/4 KO 1 $4.19 $4.19 296039 8257
4-11/16 SQ BOX 1/2 X 3/4 KO 1 $4.19 $4.19 296039 8257
"4"" SQ COVER UNIVERSAL (6 IN 1)" 1 $4.19 $4.19 1000025498 809U
1-Gang 18 cu. in. PVC Shallow New Work Electrical Switch and Outlet Box 1 $4.14 $4.14 243008 SNO-18-R
"CARLON ENT 4"" ROUND BOX 1/2"" 3/4"" KO" 1 $4.13 $4.13 213307 A615DEL
CARLON NEW WORK 3G 44CU 1 $4.09 $4.09 202517 B344AB
CARLON NEW WORK 3G 44CU 1 $4.09 $4.09 202517 B344AB
CARLON NEW WORK 3G 44CU 1 $4.09 $4.09 202517 B344AB
CARLON NEW WORK 3G 44CU 1 $4.09 $4.09 202517 B344AB
CARLON NEW WORK 3G 44CU 1 $4.09 $4.09 202517 B344AB
CARLON NEW WORK 3G 44CU 1 $4.09 $4.09 202517 B344AB
CARLON NEW WORK 3G 44CU 1 $4.09 $4.09 202517 B344AB
CARLON NEW WORK 3G 44CU 1 $4.09 $4.09 202517 B344AB
CARLON NEW WORK 3G 44CU 1 $4.09 $4.09 202517 B344AB
CARLON NEW WORK 3G 44CU 1 $4.09 $4.09 202517 B344AB
CARLON NEW WORK 3G 44CU 1 $4.09 $4.09 202517 B344AB
CARLON NEW WORK 3G 44CU 1 $4.09 $4.09 202517 B344AB
CARLON NEW WORK 3G 44CU 1 $4.09 $4.09 202517 B344AB
"2 1/4""CABLE CLAMP SWITCH BX W/BVLCRN" 1 $4.09 $4.09 537606 487
CARLON NEW WORK 3G 44CU 1 $4.09 $4.09 202517 B344AB
CARLON NEW WORK 3G 44CU 1 $4.09 $4.09 202517 B344AB
"3-1/2"" SWITCH BOX W/NM CLAMPS" 1 $4.09 $4.09 587897 8601
"180 COUPLING 3/4"" PK15" 1 $4.08 $4.08 792397 R6141624M
"180 COUPLING 3/4"" PK15" 1 $4.08 $4.08 792397 R6141624M
"180 COUPLING 3/4"" PK15" 1 $4.08 $4.08 792397 R6141624M
"180 COUPLING 3/4"" PK15" 1 $4.08 $4.08 792397 R6141624M
"180 COUPLING 3/4"" PK15" 1 $4.08 $4.08 792397 R6141624M
2-Gang 25 cu. in. PV 1 $4.05 $4.05 745081 B225R-UPC
CARLON OLD WORK 2G 25CU 1 $4.05 $4.05 745081 B225R-UPC
CARLON OLD WORK 2G 25CU 1 $4.05 $4.05 745081 B225R-UPC
CARLON OLD WORK 2G 25CU 1 $4.05 $4.05 745081 B225R-UPC
CARLON OLD WORK 2G 25CU 1 $4.05 $4.05 745081 B225R-UPC
CARLON OLD WORK 2G 25CU 1 $4.05 $4.05 745081 B225R-UPC
CARLON OLD WORK 2G 25CU 1 $4.05 $4.05 745081 B225R-UPC
CARLON ENT NEW WORK 4 SQUARE 32CU 1 $4.03 $4.03 564577 B432ARR-UPC
"245 CONDUIT BODY 3/4"" TYPE LR" 1 $3.97 $3.97 876883 E985E-CTN
2-Gang 32 cu. in. PV 1 $3.91 $3.91 690414 B232BR
2-Gang 32 cu. in. PV 1 $3.91 $3.91 690414 B232BR
2-Gang 32 cu. in. PV 1 $3.91 $3.91 690414 B232BR
2-Gang 32 cu. in. PV 1 $3.91 $3.91 690414 B232BR
2-Gang 32 cu. in. PV 1 $3.91 $3.91 690414 B232BR
2-Gang 32 cu. in. PV 1 $3.91 $3.91 690414 B232BR
"CARLON OW CEILING 3"" 14CU SUPERBLUE" 1 $3.89 $3.89 212326 BH614R
3.5 in. 14 cu. in. H 1 $3.89 $3.89 212326 BH614R
"CARLON OW CEILING 3"" 14CU SUPERBLUE" 1 $3.89 $3.89 212326 BH614R
"ELBOW 2"" SCH 40 90DEG 24"" BELL END" 3 $1.29 $3.87 753679 5133924U
CARLON ENT 4 SQUARE BLANK COVER 3 $1.26 $3.78 202533 A400R-CAR
"CARLON OLD WORK CEILING 4"" 18CU" 1 $3.72 $3.72 339172 B618RR
"CARLON OLD WORK CEILING 4"" 18CU" 1 $3.72 $3.72 339172 B618RR
"CARLON OLD WORK CEILING 4"" 18CU" 1 $3.72 $3.72 339172 B618RR
1-Gang 18 cu. in. PV 1 $3.72 $3.72 339172 B618RR
"CARLON OLD WORK CEILING 4"" 18CU" 1 $3.72 $3.72 339172 B618RR
"CARLON OLD WORK CEILING 4"" 18CU" 1 $3.72 $3.72 339172 B618RR
"CARLON OLD WORK CEILING 4"" 18CU" 1 $3.72 $3.72 339172 B618RR
"CARLON OLD WORK CEILING 4"" 18CU" 1 $3.72 $3.72 339172 B618RR
"CARLON OLD WORK CEILING 4"" 18CU" 1 $3.72 $3.72 339172 B618RR
"CARLON OLD WORK CEILING 4"" 18CU" 1 $3.72 $3.72 339172 B618RR
"CARLON OLD WORK CEILING 4"" 18CU" 1 $3.72 $3.72 339172 B618RR
"CARLON OLD WORK CEILING 4"" 18CU" 1 $3.72 $3.72 339172 B618RR
"CARLON OLD WORK CEILING 4"" 18CU" 1 $3.72 $3.72 339172 B618RR
1-Gang 18 cu. in. PV 1 $3.72 $3.72 339172 B618RR
BRACKET CORNER ANGLE 4-HOLE SILVER 1 $3.69 $3.69 537896 ZAB205EG
040 MALE TERM ADAPTER 1/2IN PK 15 1 $3.69 $3.69 786856 R5140103M
STEEL NAIL ON BOX W/ NM CLAMP 1 $3.61 $3.61 338303 8355
STEEL NAIL ON BOX W/ NM CLAMP 1 $3.61 $3.61 338303 8355
STEEL NAIL ON BOX W/ NM CLAMP 1 $3.61 $3.61 338303 8355
L190 LIQTITE CONN STEEL STRAIGHT 3/4 1 $3.50 $3.50 1009270781 66206
"4"" SQ W/ BOX CLAMPS + FM BRKT" 1 $3.48 $3.48 445265 8218
CARLON NEW WORK 1G 20CU 4 $0.87 $3.48 305324 B120A-UPC
"F150 FLEX/BX SQUEEZE CONN 3/4"" PK3" 1 $3.43 $3.43 856002 20422
"4""OCTAGON BOX 2-1/2"" DEEP" 1 $3.40 $3.40 1007848520 167
"4""OCTAGON BOX 2-1/2"" DEEP" 1 $3.40 $3.40 1007848520 167
"115 CONDUIT BODY 1/2"" TYPE T" 1 $3.40 $3.40 202606 E983D-CTN
"115 CONDUIT BODY 1/2"" TYPE T" 1 $3.40 $3.40 202606 E983D-CTN
"N100 NM 2PC CLAMP CONN 3/4""-1"" PK5" 1 $3.37 $3.37 642008 26512
"1/2 - 1"" BRONZE GROUND CLAMP" 1 $3.37 $3.37 599549 J-B1-25
BRACKET CORNER ANGLE 4-HOLE SILVER 1 $3.34 $3.34 537896 ZAB205EG
4-Hole 90 Degree Ang 1 $3.34 $3.34 537896 ZAB205EG
4-Hole 90 Degree Ang 1 $3.34 $3.34 537896 ZAB205EG
4-Hole 90 Degree Ang 1 $3.34 $3.34 537896 ZAB205EG
4-Hole 90 Degree Ang 1 $3.34 $3.34 537896 ZAB205EG
4-Hole 90 Degree Ang 1 $3.34 $3.34 537896 ZAB205EG
"055 COUPLING 1/2"" PK15" 1 $3.32 $3.32 792161 R6141623M
"N055 NM CLAMP CONN 3/8"" PK5" 1 $3.31 $3.31 839647 20511
"3""X2""X1-1/2"" SWITCH BOX W/NM CLAMP" 1 $3.28 $3.28 299790 SWB-25R
4IN OCTAGON BOX W/TS BRKT 1 $3.28 $3.28 295988 161
4IN OCTAGON BOX W/TS BRKT 1 $3.28 $3.28 295988 161
"2-1/4"" DEEP SWITCH BOX W/NM CLAMPS" 1 $3.26 $3.26 1007812506 471
"HANDY BOX 1-7/8""X3/3"" KO 5/8"" A BRKT" 1 $3.21 $3.21 1007799270 661SP
"HANDY BOX 1-7/8""X3/3"" KO 5/8"" A BRKT" 1 $3.21 $3.21 1007799270 661SP
"HANDY BOX 1-7/8""X3/3"" KO 5/8"" A BRKT" 1 $3.21 $3.21 1007799270 661SP
"HANDY BOX 1-7/8""X3/3"" KO 5/8"" A BRKT" 1 $3.21 $3.21 1007799270 661SP
"230 PULL ELBOW 3/4""" 1 $3.21 $3.21 202649 R5240102
"230 PULL ELBOW 3/4""" 1 $3.21 $3.21 202649 R5240102
"2-1/2"" SW BOX 1/2 KO TS BRKT" 1 $3.20 $3.20 1007848513 531
"CARLON NW CEILING 4"" 25CU SUPER BLUE" 1 $3.18 $3.18 381853 BH525A
"4"" SQ 1.5"" DEEP FH BRKT 1/2"" KO" 1 $3.17 $3.17 1007804378 8197
CARLON CEILING BLANK COVER WHITE 1 $3.12 $3.12 750265 CPC4WH
LAMPHOLDER SILVER 1 $3.12 $3.12 214361 5606-0B
LAMPHOLDER BRONZE 1 $3.12 $3.12 1007812532 S500BREG
LAMPHOLDER BRONZE 1 $3.12 $3.12 1007812532 S500BREG
LAMPHOLDER BRONZE 1 $3.12 $3.12 1007812532 S500BREG
CARLON CEILING BLANK COVER WHITE 1 $3.12 $3.12 750265 CPC4WH
2-Gang 4-11/16 in. S 1 $3.04 $3.04 296056 841
2-Gang 4-11/16 in. S 1 $3.04 $3.04 296056 841
2-Gang 4-11/16 in. S 1 $3.04 $3.04 296056 841
SWITCH BOX 2 1/2 BP NM CLP 1 $3.04 $3.04 1007804446 519
SWITCH BOX 2 1/2 BP NM CLP 1 $3.04 $3.04 1007804446 519
SWITCH BOX 2 1/2 BP NM CLP 1 $3.04 $3.04 1007804446 519
SWITCH BOX 2 1/2 BP NM CLP 1 $3.04 $3.04 1007804446 519
SWITCH BOX 2 1/2 BP NM CLP 1 $3.04 $3.04 1007804446 519
SWITCH BOX 2 1/2 BP NM CLP 1 $3.04 $3.04 1007804446 519
SWITCH BOX 2 1/2 BP NM CLP 1 $3.04 $3.04 1007804446 519
SWITCH BOX 2 1/2 BP NM CLP 1 $3.04 $3.04 1007804446 519
SWITCH BOX 2 1/2 BP NM CLP 1 $3.04 $3.04 1007804446 519
SWITCH BOX 2 1/2 BP NM CLP 1 $3.04 $3.04 1007804446 519
SWITCH BOX 2 1/2 BP NM CLP 1 $3.04 $3.04 1007804446 519
"LIQTITE CONN IRON 90DEG 1/2""" 1 $3.02 $3.02 263713 3422-8
4 in. 15.8 cu. in. S 1 $3.02 $3.02 338206 146
CARLON OLD WORK 1G 20CU 1 $2.91 $2.91 141206 B120R
1-Gang 20 cu. in. PV 1 $2.91 $2.91 141206 B120R
1-Gang 20 cu. in. PV 1 $2.91 $2.91 141206 B120R
1-Gang 20 cu. in. PV 1 $2.91 $2.91 141206 B120R
CARLON OLD WORK 1G 20CU 1 $2.91 $2.91 141206 B120R
CARLON OLD WORK 1G 20CU 1 $2.91 $2.91 141206 B120R
CARLON OLD WORK 1G 20CU 1 $2.91 $2.91 141206 B120R
CARLON OLD WORK 1G 20CU 1 $2.91 $2.91 141206 B120R
CARLON OLD WORK 1G 20CU 1 $2.91 $2.91 141206 B120R
CARLON OLD WORK 1G 20CU 1 $2.91 $2.91 141206 B120R
CARLON OLD WORK 1G 20CU 1 $2.91 $2.91 141206 B120R
"SWITCH BOX 2 1/2"" DEEP" 1 $2.90 $2.90 172058 518
"4"" OCT BOX EXT 1 1/2 DP 1/2 & 3/4 KO" 1 $2.90 $2.90 299987 130
"4"" OCT BOX EXT 1 1/2 DP 1/2 & 3/4 KO" 1 $2.90 $2.90 299987 130
"SWITCH BOX 2 1/2"" DEEP" 1 $2.90 $2.90 172058 518
CARLON OLD WORK 1G 8CU SHALLOW 2 $1.43 $2.86 279670 B108R-UPC
1-7/8 HANDY BOX FLAT BRKT 1/2 KO 1 $2.82 $2.82 101281 662
"CARLON ENT 1"" MALE ADAPTER" 1 $2.80 $2.80 462036 A243F-CAR
"CARLON ENT 1"" MALE ADAPTER" 1 $2.80 $2.80 462036 A243F-CAR
3.5 CEILING PAN W/ 1/2 KO 1 $2.80 $2.80 1007810603 8292
"390 ELBOW 1 1/4"" SCH40 90DEG BELLED" 1 $2.77 $2.77 117589 UA9AGB-CTN
SB 2.75IN D 1/2 KO EARS GANG 1 $2.77 $2.77 263131 560
"470 CLAMP NM 2-HOLE STRAP 2"" 5PCS" 1 $2.76 $2.76 181747 R5133735
"3"" PIPE STRAP SILVER" 1 $2.72 $2.72 709990 Z702 3EG
"4""SQ COVER 30-50 REPT 2.141""" 1 $2.71 $2.71 338974 810C
"4""SQ COVER 30-50 REPT 2.141""" 1 $2.71 $2.71 338974 810C
"4"" OCT BOX EXT 1 1/2 DP 1/2 & 3/4 KO" 1 $2.69 $2.69 1007856419 130
4 SQ BOX 2 1/8 DP 1/2 & 3/4 K.O. 1 $2.68 $2.68 1007810593 8232
WIRED LED LIGHTED DOOR BELL PUSH BUT 1 $2.65 $2.65 1004856080 HB-704-00
"WIRED PUSH BUTTON INSERT, NICKEL, LE" 1 $2.65 $2.65 1008644302 18000033
1-Gang 3 in. x 2 in. 1 $2.63 $2.63 172058 518
1-Gang 3 in. x 2 in. 1 $2.63 $2.63 172058 518
4 SQ BOX EXT 1 1/2 DP 1/2 & 3/4 KO 1 $2.63 $2.63 300020 8203
BRACKET 90DEG 2-HOLE SILVER MAG 1 $2.61 $2.61 1004102466 ZAB202MEG
"HANDY BOX 1 1/2"" DEEP 1/2 KO" 1 $2.60 $2.60 1007810591 8650
"HANDY BOX 1 1/2"" DEEP 1/2 KO" 1 $2.60 $2.60 1007810591 8650
"HANDY BOX 1 1/2"" DEEP 1/2 KO" 1 $2.60 $2.60 1007810591 8650
"HANDY BOX 1 1/2"" DEEP 1/2 KO" 1 $2.60 $2.60 1007810591 8650
"HANDY BOX 1 1/2"" DEEP 1/2 KO" 1 $2.60 $2.60 1007810591 8650
"HANDY BOX 1 1/2"" DEEP 1/2 KO" 1 $2.60 $2.60 1007810591 8650
"HANDY BOX 1 1/2"" DEEP 1/2 KO" 1 $2.60 $2.60 1007810591 8650
"HANDY BOX 1 1/2"" DEEP 1/2 KO" 1 $2.60 $2.60 1007810591 8650
"4"" SQ BOX 1 1/2 DP FL BKT 1/2 & 3/4" 1 $2.58 $2.58 1007810608 8196
"4"" SQUARE COVER 1 GFCI" 1 $2.57 $2.57 587821 808C
"4"" SQUARE COVER 1 GFCI" 1 $2.57 $2.57 587821 808C
WPRF BLANK COVER 1 GANG WHITE 1 $2.57 $2.57 1007820759 E980CM-CAR
1 1/2 DEEP SWITCH BOX 1 $2.55 $2.55 885655 400
"4"" SQ DRAWN W/ 1/2 + 3/4 KO" 1 $2.49 $2.49 1007810635 8192
"CARLON NEWWORK CEILING 4"" 20CU W/LUG" 1 $2.49 $2.49 722340 B520P-UPC
"2-1/8"" DEEP HANDY BOX W/ 1/2 KO" 1 $2.49 $2.49 1007810610 8670
"2-1/8"" DEEP HANDY BOX W/ 1/2 KO" 1 $2.49 $2.49 1007810610 8670
"2-1/8"" DEEP HANDY BOX W/ 1/2 KO" 1 $2.49 $2.49 1007810610 8670
"CARLON NEW WORK CEILING 3"" 18CU" 1 $2.47 $2.47 202744 B518AR-UPC
"CARLON NEW WORK CEILING 3"" 18CU" 1 $2.47 $2.47 202744 B518AR-UPC
"1/4 TO 1"" SWITCH BX EXT" 1 $2.46 $2.46 101362 976
"WIRED PUSH BUTTON, LED LIGHTED" 1 $2.46 $2.46 1008504795 18000039
CARLON NEW WORK 2G 32CU 1 $2.43 $2.43 202509 B232ACP
CARLON NEW WORK 2G 32CU 1 $2.43 $2.43 202509 B232ACP
CARLON NEW WORK 2G 32CU 1 $2.43 $2.43 202509 B232ACP
CARLON NEW WORK 2G 32CU 1 $2.43 $2.43 202509 B232ACP
CARLON NEW WORK 2G 32CU 1 $2.43 $2.43 202509 B232ACP
CARLON NEW WORK 2G 32CU 1 $2.43 $2.43 202509 B232ACP
CARLON NEW WORK 2G 32CU 1 $2.43 $2.43 202509 B232ACP
CARLON NEW WORK 2G 32CU 1 $2.43 $2.43 202509 B232ACP
2-Gang 32 cu. in. Bl 1 $2.43 $2.43 202509 B232ACP
2-Gang 32 cu. in. Bl 1 $2.43 $2.43 202509 B232ACP
2-Gang 32 cu. in. Bl 1 $2.43 $2.43 202509 B232ACP
2-Gang 32 cu. in. Bl 1 $2.43 $2.43 202509 B232ACP
CARLON NEW WORK 2G 32CU 1 $2.43 $2.43 202509 B232ACP
CARLON NEW WORK 2G 32CU 1 $2.43 $2.43 202509 B232ACP
CARLON NEW WORK 2G 32CU 1 $2.43 $2.43 202509 B232ACP
CARLON NEW WORK 2G 32CU 1 $2.43 $2.43 202509 B232ACP
CARLON NEW WORK 2G 32CU 1 $2.43 $2.43 202509 B232ACP
CARLON NEW WORK 2G 32CU 1 $2.43 $2.43 202509 B232ACP
CARLON NEW WORK 2G 32CU 1 $2.43 $2.43 202509 B232ACP
CARLON NEW WORK 2G 32CU 1 $2.43 $2.43 202509 B232ACP
2-Gang 32 cu. in. Blue PVC New Work Electrical Switch and Outlet Box 1 $2.43 $2.43 202509 B232ACP
6FT. 16/2 SPT-2 BROWN 3-OUTLET HOUSE 1 $2.38 $2.38 1005744880 EC670606
"NM CLAMP N080 NM CLAMP CONN 1-1/4"" E" 1 $2.38 $2.38 321653 90514
"2-1/2"" PIPE STRAP GOLD" 1 $2.36 $2.36 1004591279 Z702 2 1/2-10
"2 1/2"" DEEP SWITCH BOX W/ 1/2 KO" 1 $2.33 $2.33 338338 8500
"100 CONDUIT BODY 1/2"" TYPE LB" 1 $2.33 $2.33 450634 E986D-CTN
"100 CONDUIT BODY 1/2"" TYPE LB" 1 $2.33 $2.33 450634 E986D-CTN
"100 CONDUIT BODY 1/2"" TYPE LB" 1 $2.33 $2.33 450634 E986D-CTN
"2 1/2"" DEEP SWITCH BOX W/ 1/2 KO" 1 $2.33 $2.33 338338 8500
"2 1/2"" DEEP SWITCH BOX W/ 1/2 KO" 1 $2.33 $2.33 338338 8500
"2 1/2"" DEEP SWITCH BOX W/ 1/2 KO" 1 $2.33 $2.33 338338 8500
"2 1/2"" DEEP SWITCH BOX W/ 1/2 KO" 1 $2.33 $2.33 338338 8500
"100 CONDUIT BODY 1/2"" TYPE LB" 1 $2.33 $2.33 450634 E986D-CTN
3.5 CEILING PAN W/ 1/2 KO 1 $2.33 $2.33 338281 8292
"2 1/2"" DEEP SWITCH BOX W/ 1/2 KO" 1 $2.33 $2.33 338338 8500
"2 1/2"" DEEP SWITCH BOX W/ 1/2 KO" 1 $2.33 $2.33 338338 8500
CARLON LOW VOLTAGE OLD WORK 1G 1 $2.27 $2.27 251426 SC100RR
"4"" PANCAKE 1/2"" KO" 1 $2.27 $2.27 315427 8293
"4"" PANCAKE 1/2"" KO" 1 $2.27 $2.27 315427 8293
CARLON LOW VOLTAGE OLD WORK 1G 1 $2.27 $2.27 251426 SC100RR
CARLON LOW VOLTAGE OLD WORK 1G 1 $2.27 $2.27 251426 SC100RR
CARLON LOW VOLTAGE OLD WORK 1G 1 $2.27 $2.27 251426 SC100RR
"4"" PANCAKE 1/2"" KO" 1 $2.27 $2.27 315427 8293
"LIQTITE CONN STEEL STRAIGHT 1/2""" 1 $2.25 $2.25 263582 3402-8
"LIQTITE CONN STEEL STRAIGHT 1/2""" 1 $2.25 $2.25 263582 3402-8
"LIQTITE CONN STEEL STRAIGHT 1/2""" 1 $2.25 $2.25 263582 3402-8
"LIQTITE CONN STEEL STRAIGHT 1/2""" 1 $2.25 $2.25 263582 3402-8
"LIQTITE CONN STEEL STRAIGHT 1/2""" 1 $2.25 $2.25 263582 3402-8
"4"" SQ 1.5"" DEEP FH BRKT 1/2"" KO" 1 $2.24 $2.24 262948 8197
"HANDY BOX 1 1/2"" DEEP 1/2 KO" 1 $2.19 $2.19 421405 8650
"HANDY BOX 1 1/2"" DEEP 1/2 KO" 1 $2.19 $2.19 421405 8650
"4"" SQ COVER 3/4"" RAISED 2 DEVICE" 1 $2.17 $2.17 1007810578 8779
"4"" SQ COVER 3/4"" RAISED 2 DEVICE" 1 $2.17 $2.17 1007810578 8779
"4"" SQ COVER 3/4"" RAISED 2 DEVICE" 1 $2.17 $2.17 1007810578 8779
"4"" SQ COVER 3/4"" RAISED 2 DEVICE" 1 $2.17 $2.17 1007810578 8779
"4"" SQ COVER 3/4"" RAISED 2 DEVICE" 1 $2.17 $2.17 1007810578 8779
CARLON OLD WORK 1G 14CU 1 $2.16 $2.16 202460 B114RB
CARLON OLD WORK 1G 14CU 1 $2.16 $2.16 202460 B114RB
1-Gang 14 cu. in. PV 1 $2.16 $2.16 202460 B114RB
1-Gang 14 cu. in. PV 1 $2.16 $2.16 202460 B114RB
CARLON OLD WORK 1G 14CU 1 $2.16 $2.16 202460 B114RB
CARLON OLD WORK 1G 14CU 1 $2.16 $2.16 202460 B114RB
CARLON OLD WORK 1G 14CU 1 $2.16 $2.16 202460 B114RB
CARLON OLD WORK 1G 14CU 1 $2.16 $2.16 202460 B114RB
1-Gang 14 cu. in. PV 1 $2.16 $2.16 202460 B114RB
CARLON OLD WORK 1G 14CU 1 $2.16 $2.16 202460 B114RB
CARLON OLD WORK 1G 14CU 1 $2.16 $2.16 202460 B114RB
"4"" SQUARE 3/4"" RAISED RING COVER" 1 $2.16 $2.16 296008 759
"CARLON NEW WORK CEILING 4"" 20CU" 1 $2.11 $2.11 202576 B520A-UPC
"CARLON NEW WORK CEILING 4"" 20CU" 1 $2.11 $2.11 202576 B520A-UPC
"CARLON NEW WORK CEILING 4"" 20CU" 1 $2.11 $2.11 202576 B520A-UPC
"CARLON NEW WORK CEILING 4"" 20CU" 1 $2.11 $2.11 202576 B520A-UPC
"CARLON NEW WORK CEILING 4"" 20CU" 1 $2.11 $2.11 202576 B520A-UPC
"CARLON NEW WORK CEILING 4"" 20CU" 1 $2.11 $2.11 202576 B520A-UPC
"CARLON NEW WORK CEILING 4"" 20CU" 1 $2.11 $2.11 202576 B520A-UPC
"CARLON NEW WORK CEILING 4"" 20CU" 1 $2.11 $2.11 202576 B520A-UPC
"CARLON NEW WORK CEILING 4"" 20CU" 1 $2.11 $2.11 202576 B520A-UPC
1-Gang 20 cu. in. Ne 1 $2.11 $2.11 202576 B520A-UPC
1-Gang 20 cu. in. Ne 1 $2.11 $2.11 202576 B520A-UPC
1-Gang 20 cu. in. Ne 1 $2.11 $2.11 202576 B520A-UPC
"CARLON NEW WORK CEILING 4"" 20CU" 1 $2.11 $2.11 202576 B520A-UPC
"CLOSURE PLUGS 1"" SILVER" 1 $2.09 $2.09 1007812587 S605E-30R
4X1-1/2 SQBX 1/2&3/4 KO 1 $2.09 $2.09 1007804458 8189
"4"" SQR COVER 2 DUPLEX" 1 $2.06 $2.06 158225 907C
"1-1/2"" UNIVERSAL PIPE CLAMP SILVER" 1 $2.06 $2.06 541745 Z703 1 1/2EG
"4"" PANCAKE 1/2"" KO" 1 $2.06 $2.06 315427 8293
"4"" PANCAKE 1/2"" KO" 1 $2.06 $2.06 315427 8293
"1-1/2"" UNIVERSAL PIPE CLAMP SILVER" 1 $2.06 $2.06 541745 Z703 1 1/2EG
4 IN SQ MUD RING RAISED 1 IN 1 DEV 1 $2.05 $2.05 1007848488 774
"WIRED PUSH BUTTON, BLACK" 1 $1.97 $1.97 1008626456 18000034
"4"" SQ BOX 1 1/2 DP FL BKT 1/2 & 3/4" 1 $1.92 $1.92 434973 8196
"L165 LIQTITE NM FIT 3/4"" 90DEG" 1 $1.92 $1.92 546928 LN20EA-CTN
4 SQ BOX 2 1/8 DP 1/2 & 3/4 K.O. 1 $1.92 $1.92 434981 8232
"4"" SQ COVER 1 TOGGLE SWITCH" 1 $1.92 $1.92 338958 800C
4 SQ BOX 2 1/8 DP 1/2 & 3/4 K.O. 1 $1.92 $1.92 434981 8232
HANDY BX 1-7/8IN D W/8-3/4 KO JLQ100 1 $1.92 $1.92 592042 8663
HANDY BX 1-7/8IN D W/8-3/4 KO JLQ100 1 $1.92 $1.92 592042 8663
"4"" SQ BOX 1 1/2 DP FL BKT 1/2 & 3/4" 1 $1.92 $1.92 434973 8196
1 in. 90-Degree Schedule 40 Standard Radius Belled End Elbow 1 $1.86 $1.86 703543 R5233825
"320 ELBOW 1"" SCH40 90DEG BELL END" 1 $1.86 $1.86 703543 R5233825
"320 ELBOW 1"" SCH40 90DEG BELL END" 1 $1.86 $1.86 703543 R5233825
"320 ELBOW 1"" SCH40 90DEG BELL END" 1 $1.86 $1.86 703543 R5233825
"4"" SQ COVER 3/4 RAISED 1 DEVICE" 1 $1.84 $1.84 1007815398 8773
"1-1/4"" UNIVERSAL PIPE CLAMP SILVER" 1 $1.81 $1.81 236664 Z703 1 1/4
4 in. 2-1/8 in. Hand 1 $1.76 $1.76 592042 8663
4 in. 2-1/8 in. Hand 1 $1.76 $1.76 592042 8663
4 in. 2-1/8 in. Hand 1 $1.76 $1.76 592042 8663
4 in. 2-1/8 in. Hand 1 $1.76 $1.76 592042 8663
4 in. 2-1/8 in. Hand 1 $1.76 $1.76 592042 8663
4X1-1/2 OCT BX 1/2&3/4 KO 1 $1.73 $1.73 201839 127
OCTAGON FLAT DUPLEX RECEPTABLE 1 $1.70 $1.70 1007849338 731
"CARLON ENT 5/8"" 2G RAISED COVER" 1 $1.67 $1.67 489662 A421R-CAR
"E470 EMT SETSCREW CONN 1"" ZNC EA" 1 $1.67 $1.67 924608 12310
"1/2 - 1"" ZINC GROUND CLAMP" 1 $1.67 $1.67 621708 CZ11BAG1R
CARLON NEW WORK 1G 22CU SUPER BLUE 1 $1.64 $1.64 120314 BH122A
"4"" SQ BOX CVR FLAT 2DVS 1SWTCH 1DPLX" 1 $1.62 $1.62 215553 872
"4"" SQ BOX CVR FLAT 2DVS 1SWTCH 1DPLX" 1 $1.62 $1.62 215553 872
"4"" SQ BOX CVR FLAT 2DVS 1SWTCH 1DPLX" 1 $1.62 $1.62 215553 872
"4"" SQ BOX CVR FLAT 2DVS 1SWTCH 1DPLX" 1 $1.62 $1.62 215553 872
"4"" SQ BOX CVR FLAT 2DVS 1SWTCH 1DPLX" 1 $1.62 $1.62 215553 872
"4"" SQ BOX CVR FLAT 2DVS 2DPLX" 1 $1.62 $1.62 215560 873
"4"" SQ BOX CVR FLAT 2DVS 2DPLX" 1 $1.62 $1.62 215560 873
"1"" UNIVERSAL PIPE CLAMP SILVER" 1 $1.61 $1.61 541443 Z713 1EG
"R510 RGD 2-HOLE STRAP 3/4"" PK10" 1 $1.61 $1.61 286191 26122
CARLON NEW WORK 1G 18CU BRACKET 1 $1.59 $1.59 690406 B118B-UPC
"3/4"" UNIVERSAL PIPE CLAMP SILVER" 1 $1.51 $1.51 541362 Z703 3/4EG
"487 BOX ADAPTER 2""" 1 $1.50 $1.50 445573 E996JR-CTN
"5-1/2"" GREEN STEEL GROUND CLIPS 10PK" 1 $1.50 $1.50 151367 GEE-B10-10
"LIQTITE NM FIT 1/2"" 90DEG" 1 $1.48 $1.48 547147 LN20DA-CTN
"4"" SQ DRAWN W/ 1/2 + 3/4 KO" 1 $1.45 $1.45 443497 8192
"4"" SQ DRAWN W/ 1/2 + 3/4 KO" 1 $1.45 $1.45 443497 8192
"4"" SQ DRAWN W/ 1/2 + 3/4 KO" 1 $1.45 $1.45 443497 8192
CARLON OLD WORK 1G 8CU SHALLOW 1 $1.43 $1.43 279670 B108R-UPC
CARLON OLD WORK 1G 8CU SHALLOW 1 $1.43 $1.43 279670 B108R-UPC
CARLON OLD WORK 1G 8CU SHALLOW 1 $1.43 $1.43 279670 B108R-UPC
CARLON OLD WORK 1G 8CU SHALLOW 1 $1.43 $1.43 279670 B108R-UPC
CARLON NEW WORK 1G 8CU SHALLOW 1 $1.43 $1.43 279667 B108B-UPC
"E700 EMT 1/2""1-HL SPD THRD STRAP 4PK" 1 $1.42 $1.42 1005871318 21305
4 SQ COVER 1/2 RAISED RING COVER 1 $1.40 $1.40 1007812642 8767
"CARLON ENT 1/2"" 2G RAISED COVER" 1 $1.40 $1.40 489654 A420R-CAR
"L150 LIQTITE NM FIT 3/4"" STRAIGHT" 1 $1.34 $1.34 547004 LN43EA-CTN
"L150 LIQTITE NM FIT 3/4"" STRAIGHT" 1 $1.34 $1.34 547004 LN43EA-CTN
"L150 LIQTITE NM FIT 3/4"" STRAIGHT" 1 $1.34 $1.34 547004 LN43EA-CTN
"4"" SQ COVER 5/8"" RAISED 2 DEVICE" 1 $1.32 $1.32 101370 8769
1-Gang 4 in. New Wor 1 $1.32 $1.32 443497 8192
1-Gang 4 in. New Wor 1 $1.32 $1.32 443497 8192
4X1-1/2 SQBX 1/2&3/4 KO 1 $1.31 $1.31 201863 8189
4X1-1/2 SQBX 1/2&3/4 KO 1 $1.31 $1.31 201863 8189
4X1-1/2 SQBX 1/2&3/4 KO 1 $1.31 $1.31 201863 8189
4X1-1/2 SQBX 1/2&3/4 KO 1 $1.31 $1.31 201863 8189
4X1-1/2 SQBX 1/2&3/4 KO 1 $1.31 $1.31 201863 8189
4X1-1/2 SQBX 1/2&3/4 KO 1 $1.31 $1.31 201863 8189
4X1-1/2 SQBX 1/2&3/4 KO 1 $1.31 $1.31 201863 8189
4X1-1/2 SQBX 1/2&3/4 KO 1 $1.31 $1.31 201863 8189
4X1-1/2 SQBX 1/2&3/4 KO 1 $1.31 $1.31 201863 8189
4X1-1/2 SQBX 1/2&3/4 KO 1 $1.31 $1.31 201863 8189
4X1-1/2 SQBX 1/2&3/4 KO 1 $1.31 $1.31 201863 8189
SWITCH BOX SUPPORTS-PAIR 2 $0.65 $1.30 1007812500 8977
"ELBOW 2"" SCH 40 90DEG 24"" BELL END" 1 $1.29 $1.29 753679 5133924U
2 in. 90-Degree Schedule 40 PVC 24 in. Bend Radius Belled End Elbow 1 $1.29 $1.29 753679 5133924U
2 in. 90-Degree Schedule 40 PVC 24 in. Bend Radius Belled End Elbow 1 $1.29 $1.29 753679 5133924U
2 in. 90-Degree Schedule 40 PVC 24 in. Bend Radius Belled End Elbow 1 $1.29 $1.29 753679 5133924U
2 in. 90-Degree Schedule 40 PVC 24 in. Bend Radius Belled End Elbow 1 $1.29 $1.29 753679 5133924U
CARLON HANDY BOX BLANK COVER 1G GRY 1 $1.26 $1.26 397627 HB1BL
CARLON HANDY BOX BLANK COVER 1G GRY 1 $1.26 $1.26 397627 HB1BL
1 Gang Gray Non-Meta 1 $1.26 $1.26 397643 HB1DP
CARLON ENT 4 SQUARE BLANK COVER 1 $1.26 $1.26 202533 A400R-CAR
"E465 EMT SETSCREW CONN 1"" STL EA" 1 $1.17 $1.17 605840 62710
HANDY BOX 1 7/8 DP 1/2 KO 1 $1.13 $1.13 299839 8660
"HANDY BOX 1/2"" K.O. COVER" 1 $1.12 $1.12 1007848423 861
"HANDY BOX 1/2"" K.O. COVER" 1 $1.12 $1.12 1007848423 861
"HANDY BOX 1/2"" K.O. COVER" 1 $1.12 $1.12 1007848423 861
"205 ELBOW 3/4"" SCH40 90DEG BELL END" 1 $1.10 $1.10 703459 UA9AEB-CTN
"L145 LIQTITE NM FIT 1/2"" STRAIGHT" 1 $1.01 $1.01 546953 LN43DA-CTN
M040 UNIV 3/4 IN. 2-HOLE STRAP 4PK 1 $0.99 $0.99 1005871347 92207
1-Gang 22 cu. in. Ne 1 $0.98 $0.98 254265 B122A-UPC
CARLON NEW WORK 1G 22.5CU 1 $0.96 $0.96 254265 B122A-UPC
CARLON NEW WORK 1G 22.5CU 1 $0.96 $0.96 254265 B122A-UPC
CARLON NEW WORK 1G 22.5CU 1 $0.96 $0.96 254265 B122A-UPC
CARLON NEW WORK 1G 22.5CU 1 $0.96 $0.96 254265 B122A-UPC
CARLON NEW WORK 1G 22.5CU 1 $0.96 $0.96 254265 B122A-UPC
CARLON NEW WORK 1G 22.5CU 1 $0.96 $0.96 254265 B122A-UPC
CARLON NEW WORK 1G 22.5CU 1 $0.96 $0.96 254265 B122A-UPC
CARLON NEW WORK 1G 22.5CU 1 $0.96 $0.96 254265 B122A-UPC
CARLON NEW WORK 1G 22.5CU 1 $0.96 $0.96 254265 B122A-UPC
CARLON NEW WORK 1G 22.5CU 1 $0.96 $0.96 254265 B122A-UPC
CARLON NEW WORK 1G 22.5CU 1 $0.96 $0.96 254265 B122A-UPC
CARLON NEW WORK 1G 22.5CU 1 $0.96 $0.96 254265 B122A-UPC
"030 CLAMP NM 2-HOLE STRAP 1/2"" 5PCS" 1 $0.94 $0.94 129485 R5133736
"4"" SQ COVER 5/8"" RAISED 1 DEVICE" 1 $0.94 $0.94 103004 8768
OCTAGON STEEL COVER 1 $0.90 $0.90 1007849377 703
CARLON NEW WORK 1G 20CU 1 $0.87 $0.87 305324 B120A-UPC
PVC 1-Gang 20 cu. in 1 $0.87 $0.87 305324 B120A-UPC
PVC 1-Gang 20 cu. in 1 $0.87 $0.87 305324 B120A-UPC
PVC 1-Gang 20 cu. in 1 $0.87 $0.87 305324 B120A-UPC
PVC 1-Gang 20 cu. in 1 $0.87 $0.87 305324 B120A-UPC
CARLON NEW WORK 1G 20CU 1 $0.87 $0.87 305324 B120A-UPC
"4"" SQUARE FLAT COVER 1/2 KO" 1 $0.87 $0.87 1007804453 8753
PVC 1-Gang 20 cu. in 1 $0.87 $0.87 305324 B120A-UPC
PVC 1-Gang 20 cu. in 1 $0.87 $0.87 305324 B120A-UPC
CARLON NEW WORK 1G 20CU 1 $0.87 $0.87 305324 B120A-UPC
CARLON NEW WORK 1G 20CU 1 $0.87 $0.87 305324 B120A-UPC
CARLON NEW WORK 1G 20CU 1 $0.87 $0.87 305324 B120A-UPC
CARLON NEW WORK 1G 20CU 1 $0.87 $0.87 305324 B120A-UPC
CARLON NEW WORK 1G 20CU 1 $0.87 $0.87 305324 B120A-UPC
"4"" SQUARE FLAT COVER 1/2 KO" 1 $0.87 $0.87 1007804453 8753
CARLON NEW WORK 1G 20CU 1 $0.85 $0.85 305324 B120A-UPC
CARLON NEW WORK 1G 20CU 1 $0.85 $0.85 305324 B120A-UPC
CARLON NEW WORK 1G 20CU 1 $0.85 $0.85 305324 B120A-UPC
CARLON NEW WORK 1G 20CU 1 $0.85 $0.85 305324 B120A-UPC
CARLON NEW WORK 1G 20CU 1 $0.85 $0.85 305324 B120A-UPC
CARLON NEW WORK 1G 20CU 1 $0.85 $0.85 305324 B120A-UPC
CARLON NEW WORK 1G 20CU 1 $0.85 $0.85 305324 B120A-UPC
CARLON NEW WORK 1G 20CU 1 $0.85 $0.85 305324 B120A-UPC
CARLON NEW WORK 1G 20CU 1 $0.85 $0.85 305324 B120A-UPC
CARLON NEW WORK 1G 20CU 1 $0.85 $0.85 305324 B120A-UPC
CARLON NEW WORK 1G 20CU 1 $0.85 $0.85 305324 B120A-UPC
CARLON NEW WORK 1G 20CU 1 $0.85 $0.85 305324 B120A-UPC
CARLON NEW WORK 1G 20CU 1 $0.85 $0.85 305324 B120A-UPC
CARLON NEW WORK 1G 20CU 1 $0.85 $0.85 305324 B120A-UPC
CARLON NEW WORK 1G 20CU 1 $0.85 $0.85 305324 B120A-UPC
"A095 ACC KNOCKOUT SEAL 1"" PK2" 1 $0.83 $0.83 621445 96073
"R215 RGD LOCKNUT 1-1/4"" PK2" 1 $0.80 $0.80 293700 96194
"4"" SQ BOX COVER FLAT BLANK" 1 $0.74 $0.74 1007812618 8752
1-Gang Square Mud Ri 1 $0.74 $0.74 299898 8772
SWITCH BOX SUPPORTS-PAIR 1 $0.69 $0.69 587852 8977
CARLON NEW WORK 1G 18CU 1 $0.66 $0.66 202479 B118A
CARLON NEW WORK 1G 18CU 1 $0.66 $0.66 202479 B118A
CARLON NEW WORK 1G 18CU 1 $0.66 $0.66 202479 B118A
SWITCH BOX SUPPORTS-PAIR 1 $0.65 $0.65 1007812500 8977
"HANDY BOX 1/2"" K.O. COVER" 1 $0.65 $0.65 101230 58C6-25R
SWITCH BOX SUPPORTS-PAIR 1 $0.65 $0.65 1007812500 8977
"375 COUPLING 1 1/4""" 1 $0.63 $0.63 159883 R6141626
HANDY BOX COVER BLANK 1 $0.58 $0.58 744425 860
HANDLE BOX TOGGLE SWITCH COVER 1 $0.58 $0.58 101249 865
HANDY BOX DUPLEX RECEP COVER 1 $0.58 $0.58 101222 864
HANDY BOX DUPLEX RECEP COVER 1 $0.58 $0.58 101222 864
"4"" SQ BOX COVER FLAT BLANK" 1 $0.55 $0.55 876793 8752
4 in. Square Metal E 1 $0.55 $0.55 876793 8752
4 in. Square Metal E 1 $0.55 $0.55 876793 8752
4 in. Square Metal E 1 $0.55 $0.55 876793 8752
4 in. Square Metal E 1 $0.55 $0.55 876793 8752
"4"" SQ BOX COVER FLAT BLANK" 1 $0.55 $0.55 876793 8752
"R295 RGD REDUCE WASHER 2""X1-1/2"" EA" 1 $0.43 $0.43 190982 68615
"305 COUPLING 1""" 1 $0.36 $0.36 159492 E940FR-CTN
"185 COUPLING 3/4""" 1 $0.30 $0.30 202886 E940E-CTN